<?xml version="1.0" encoding="utf-8"?>
<gpx xmlns:xsi="http://www.w3.org/2001/XMLSchema-instance" xmlns:xsd="http://www.w3.org/2001/XMLSchema" version="1.1" creator="Shapelink.com" xmlns="http://www.topografix.com/GPX/1/1" xmlns:gpxtpx="http://www.garmin.com/xmlschemas/TrackPointExtension/v1">
  <metadata>
    <name>Sykling 48.91 km, 2012-04-09</name>
    <desc></desc>
    <author><name>Mikael Blom</name></author> 
    <time>2012-04-09T11:28:58Z</time>
  </metadata>
  <trk>
    <name>Sykling 48.91 km, 2012-04-09</name>
    <trkseg>
      <trkpt lat="59.8946123" lon="17.7394249">
        <ele>29.4575</ele>
        <time>2012-04-09T11:28:58Z</time>
      </trkpt>
      <trkpt lat="59.8944956" lon="17.7394824">
        <ele>29.9381</ele>
        <time>2012-04-09T11:29:03Z</time>
      </trkpt>
      <trkpt lat="59.8943186" lon="17.7397212">
        <ele>30.4188</ele>
        <time>2012-04-09T11:29:13Z</time>
      </trkpt>
      <trkpt lat="59.8942212" lon="17.7399117">
        <ele>29.4575</ele>
        <time>2012-04-09T11:29:17Z</time>
      </trkpt>
      <trkpt lat="59.894085" lon="17.7403007">
        <ele>27.5349</ele>
        <time>2012-04-09T11:29:22Z</time>
      </trkpt>
      <trkpt lat="59.8938964" lon="17.7408761">
        <ele>27.0543</ele>
        <time>2012-04-09T11:29:28Z</time>
      </trkpt>
      <trkpt lat="59.8936644" lon="17.7415905">
        <ele>27.0543</ele>
        <time>2012-04-09T11:29:36Z</time>
      </trkpt>
      <trkpt lat="59.8934137" lon="17.7423972">
        <ele>28.0155</ele>
        <time>2012-04-09T11:29:45Z</time>
      </trkpt>
      <trkpt lat="59.8931534" lon="17.7431978">
        <ele>30.8995</ele>
        <time>2012-04-09T11:29:54Z</time>
      </trkpt>
      <trkpt lat="59.8929677" lon="17.7437843">
        <ele>31.3801</ele>
        <time>2012-04-09T11:30:01Z</time>
      </trkpt>
      <trkpt lat="59.8928408" lon="17.744149">
        <ele>30.4188</ele>
        <time>2012-04-09T11:30:05Z</time>
      </trkpt>
      <trkpt lat="59.8925635" lon="17.7450166">
        <ele>27.0543</ele>
        <time>2012-04-09T11:30:12Z</time>
      </trkpt>
      <trkpt lat="59.8922056" lon="17.7461133">
        <ele>25.6123</ele>
        <time>2012-04-09T11:30:21Z</time>
      </trkpt>
      <trkpt lat="59.8918893" lon="17.7467023">
        <ele>24.651</ele>
        <time>2012-04-09T11:30:27Z</time>
      </trkpt>
      <trkpt lat="59.8915342" lon="17.7472105">
        <ele>24.651</ele>
        <time>2012-04-09T11:30:34Z</time>
      </trkpt>
      <trkpt lat="59.8911187" lon="17.7477746">
        <ele>24.1703</ele>
        <time>2012-04-09T11:30:42Z</time>
      </trkpt>
      <trkpt lat="59.8907465" lon="17.7482313">
        <ele>24.651</ele>
        <time>2012-04-09T11:30:49Z</time>
      </trkpt>
      <trkpt lat="59.8906459" lon="17.748362">
        <ele>25.1317</ele>
        <time>2012-04-09T11:30:51Z</time>
      </trkpt>
      <trkpt lat="59.8904137" lon="17.7484599">
        <ele>25.1317</ele>
        <time>2012-04-09T11:30:55Z</time>
      </trkpt>
      <trkpt lat="59.8902482" lon="17.7482594">
        <ele>24.651</ele>
        <time>2012-04-09T11:30:58Z</time>
      </trkpt>
      <trkpt lat="59.8897653" lon="17.7474176">
        <ele>23.209</ele>
        <time>2012-04-09T11:31:07Z</time>
      </trkpt>
      <trkpt lat="59.8892923" lon="17.7465795">
        <ele>23.6896</ele>
        <time>2012-04-09T11:31:16Z</time>
      </trkpt>
      <trkpt lat="59.8887722" lon="17.7456735">
        <ele>23.6896</ele>
        <time>2012-04-09T11:31:26Z</time>
      </trkpt>
      <trkpt lat="59.888338" lon="17.7449208">
        <ele>23.209</ele>
        <time>2012-04-09T11:31:34Z</time>
      </trkpt>
      <trkpt lat="59.8879617" lon="17.7442836">
        <ele>22.2476</ele>
        <time>2012-04-09T11:31:41Z</time>
      </trkpt>
      <trkpt lat="59.8874693" lon="17.7434606">
        <ele>21.767</ele>
        <time>2012-04-09T11:31:50Z</time>
      </trkpt>
      <trkpt lat="59.8870811" lon="17.7428016">
        <ele>21.2864</ele>
        <time>2012-04-09T11:31:57Z</time>
      </trkpt>
      <trkpt lat="59.8866467" lon="17.7421467">
        <ele>21.767</ele>
        <time>2012-04-09T11:32:05Z</time>
      </trkpt>
      <trkpt lat="59.8861231" lon="17.7415083">
        <ele>22.7283</ele>
        <time>2012-04-09T11:32:14Z</time>
      </trkpt>
      <trkpt lat="59.8857279" lon="17.7411333">
        <ele>24.651</ele>
        <time>2012-04-09T11:32:21Z</time>
      </trkpt>
      <trkpt lat="59.8856249" lon="17.7410202">
        <ele>25.1317</ele>
        <time>2012-04-09T11:32:23Z</time>
      </trkpt>
      <trkpt lat="59.8854482" lon="17.7405685">
        <ele>25.6123</ele>
        <time>2012-04-09T11:32:28Z</time>
      </trkpt>
      <trkpt lat="59.8854249" lon="17.7404638">
        <ele>25.6123</ele>
        <time>2012-04-09T11:32:29Z</time>
      </trkpt>
      <trkpt lat="59.8852768" lon="17.7396667">
        <ele>24.651</ele>
        <time>2012-04-09T11:32:36Z</time>
      </trkpt>
      <trkpt lat="59.8851188" lon="17.7393329">
        <ele>25.1317</ele>
        <time>2012-04-09T11:32:40Z</time>
      </trkpt>
      <trkpt lat="59.8849573" lon="17.7393142">
        <ele>25.6123</ele>
        <time>2012-04-09T11:32:43Z</time>
      </trkpt>
      <trkpt lat="59.8848639" lon="17.7393572">
        <ele>25.6123</ele>
        <time>2012-04-09T11:32:45Z</time>
      </trkpt>
      <trkpt lat="59.8844412" lon="17.7396335">
        <ele>27.0543</ele>
        <time>2012-04-09T11:32:55Z</time>
      </trkpt>
      <trkpt lat="59.8842827" lon="17.7397338">
        <ele>27.0543</ele>
        <time>2012-04-09T11:32:59Z</time>
      </trkpt>
      <trkpt lat="59.8840746" lon="17.739687">
        <ele>27.0543</ele>
        <time>2012-04-09T11:33:04Z</time>
      </trkpt>
      <trkpt lat="59.8840164" lon="17.7394071">
        <ele>27.0543</ele>
        <time>2012-04-09T11:33:07Z</time>
      </trkpt>
      <trkpt lat="59.8839025" lon="17.7381793">
        <ele>26.5736</ele>
        <time>2012-04-09T11:33:18Z</time>
      </trkpt>
      <trkpt lat="59.8837735" lon="17.7372461">
        <ele>26.0929</ele>
        <time>2012-04-09T11:33:26Z</time>
      </trkpt>
      <trkpt lat="59.8835326" lon="17.7364498">
        <ele>25.6123</ele>
        <time>2012-04-09T11:33:34Z</time>
      </trkpt>
      <trkpt lat="59.8833668" lon="17.7357043">
        <ele>23.6896</ele>
        <time>2012-04-09T11:33:40Z</time>
      </trkpt>
      <trkpt lat="59.8833586" lon="17.7351533">
        <ele>22.7283</ele>
        <time>2012-04-09T11:33:44Z</time>
      </trkpt>
      <trkpt lat="59.8834301" lon="17.7349177">
        <ele>22.2476</ele>
        <time>2012-04-09T11:33:46Z</time>
      </trkpt>
      <trkpt lat="59.8835098" lon="17.7346892">
        <ele>22.2476</ele>
        <time>2012-04-09T11:33:48Z</time>
      </trkpt>
      <trkpt lat="59.8835839" lon="17.7341564">
        <ele>21.767</ele>
        <time>2012-04-09T11:33:52Z</time>
      </trkpt>
      <trkpt lat="59.8835638" lon="17.7338803">
        <ele>21.2864</ele>
        <time>2012-04-09T11:33:54Z</time>
      </trkpt>
      <trkpt lat="59.8833516" lon="17.7326187">
        <ele>21.767</ele>
        <time>2012-04-09T11:34:04Z</time>
      </trkpt>
      <trkpt lat="59.8833219" lon="17.7325082">
        <ele>21.767</ele>
        <time>2012-04-09T11:34:05Z</time>
      </trkpt>
      <trkpt lat="59.8830063" lon="17.7317639">
        <ele>23.209</ele>
        <time>2012-04-09T11:34:13Z</time>
      </trkpt>
      <trkpt lat="59.8828457" lon="17.7313884">
        <ele>24.651</ele>
        <time>2012-04-09T11:34:18Z</time>
      </trkpt>
      <trkpt lat="59.882795" lon="17.7312226">
        <ele>25.1317</ele>
        <time>2012-04-09T11:34:21Z</time>
      </trkpt>
      <trkpt lat="59.8827342" lon="17.7309155">
        <ele>25.6123</ele>
        <time>2012-04-09T11:34:28Z</time>
      </trkpt>
      <trkpt lat="59.882707" lon="17.7305962">
        <ele>25.1317</ele>
        <time>2012-04-09T11:34:34Z</time>
      </trkpt>
      <trkpt lat="59.8827711" lon="17.7303435">
        <ele>23.6896</ele>
        <time>2012-04-09T11:34:38Z</time>
      </trkpt>
      <trkpt lat="59.8828997" lon="17.7299766">
        <ele>21.2864</ele>
        <time>2012-04-09T11:34:43Z</time>
      </trkpt>
      <trkpt lat="59.8829063" lon="17.7295334">
        <ele>19.8444</ele>
        <time>2012-04-09T11:34:47Z</time>
      </trkpt>
      <trkpt lat="59.8827873" lon="17.728745">
        <ele>18.4023</ele>
        <time>2012-04-09T11:34:54Z</time>
      </trkpt>
      <trkpt lat="59.8826054" lon="17.7277623">
        <ele>20.325</ele>
        <time>2012-04-09T11:35:04Z</time>
      </trkpt>
      <trkpt lat="59.8824418" lon="17.72705">
        <ele>21.2864</ele>
        <time>2012-04-09T11:35:12Z</time>
      </trkpt>
      <trkpt lat="59.882217" lon="17.7263114">
        <ele>21.767</ele>
        <time>2012-04-09T11:35:20Z</time>
      </trkpt>
      <trkpt lat="59.8820489" lon="17.7258058">
        <ele>21.767</ele>
        <time>2012-04-09T11:35:25Z</time>
      </trkpt>
      <trkpt lat="59.8817724" lon="17.72485">
        <ele>21.2864</ele>
        <time>2012-04-09T11:35:33Z</time>
      </trkpt>
      <trkpt lat="59.8815314" lon="17.7239135">
        <ele>21.2864</ele>
        <time>2012-04-09T11:35:41Z</time>
      </trkpt>
      <trkpt lat="59.8814782" lon="17.723685">
        <ele>21.2864</ele>
        <time>2012-04-09T11:35:43Z</time>
      </trkpt>
      <trkpt lat="59.8814762" lon="17.7231886">
        <ele>21.2864</ele>
        <time>2012-04-09T11:35:47Z</time>
      </trkpt>
      <trkpt lat="59.88155" lon="17.7229671">
        <ele>21.2864</ele>
        <time>2012-04-09T11:35:49Z</time>
      </trkpt>
      <trkpt lat="59.882015" lon="17.7219823">
        <ele>21.2864</ele>
        <time>2012-04-09T11:35:59Z</time>
      </trkpt>
      <trkpt lat="59.8823451" lon="17.7215223">
        <ele>20.8057</ele>
        <time>2012-04-09T11:36:05Z</time>
      </trkpt>
      <trkpt lat="59.882754" lon="17.7211017">
        <ele>21.2864</ele>
        <time>2012-04-09T11:36:12Z</time>
      </trkpt>
      <trkpt lat="59.8828924" lon="17.7206938">
        <ele>21.2864</ele>
        <time>2012-04-09T11:36:16Z</time>
      </trkpt>
      <trkpt lat="59.88284" lon="17.720289">
        <ele>20.8057</ele>
        <time>2012-04-09T11:36:19Z</time>
      </trkpt>
      <trkpt lat="59.8825931" lon="17.719159">
        <ele>20.325</ele>
        <time>2012-04-09T11:36:28Z</time>
      </trkpt>
      <trkpt lat="59.8824127" lon="17.7181785">
        <ele>21.2864</ele>
        <time>2012-04-09T11:36:36Z</time>
      </trkpt>
      <trkpt lat="59.8823665" lon="17.7172471">
        <ele>21.2864</ele>
        <time>2012-04-09T11:36:43Z</time>
      </trkpt>
      <trkpt lat="59.8822257" lon="17.7160086">
        <ele>21.2864</ele>
        <time>2012-04-09T11:36:52Z</time>
      </trkpt>
      <trkpt lat="59.8820501" lon="17.7147362">
        <ele>21.767</ele>
        <time>2012-04-09T11:37:02Z</time>
      </trkpt>
      <trkpt lat="59.8818486" lon="17.7133314">
        <ele>22.2476</ele>
        <time>2012-04-09T11:37:14Z</time>
      </trkpt>
      <trkpt lat="59.8816942" lon="17.7122018">
        <ele>22.2476</ele>
        <time>2012-04-09T11:37:24Z</time>
      </trkpt>
      <trkpt lat="59.8815065" lon="17.7113512">
        <ele>22.7283</ele>
        <time>2012-04-09T11:37:32Z</time>
      </trkpt>
      <trkpt lat="59.881235" lon="17.7106094">
        <ele>23.209</ele>
        <time>2012-04-09T11:37:40Z</time>
      </trkpt>
      <trkpt lat="59.8810051" lon="17.7098645">
        <ele>22.7283</ele>
        <time>2012-04-09T11:37:48Z</time>
      </trkpt>
      <trkpt lat="59.880828" lon="17.7094693">
        <ele>23.6896</ele>
        <time>2012-04-09T11:37:53Z</time>
      </trkpt>
      <trkpt lat="59.880637" lon="17.7089778">
        <ele>23.209</ele>
        <time>2012-04-09T11:37:59Z</time>
      </trkpt>
      <trkpt lat="59.8804561" lon="17.7083442">
        <ele>20.8057</ele>
        <time>2012-04-09T11:38:05Z</time>
      </trkpt>
      <trkpt lat="59.8803226" lon="17.7076718">
        <ele>20.325</ele>
        <time>2012-04-09T11:38:11Z</time>
      </trkpt>
      <trkpt lat="59.8801496" lon="17.7067052">
        <ele>21.2864</ele>
        <time>2012-04-09T11:38:20Z</time>
      </trkpt>
      <trkpt lat="59.8798806" lon="17.705712">
        <ele>21.2864</ele>
        <time>2012-04-09T11:38:30Z</time>
      </trkpt>
      <trkpt lat="59.8795501" lon="17.7046552">
        <ele>22.2476</ele>
        <time>2012-04-09T11:38:41Z</time>
      </trkpt>
      <trkpt lat="59.8792647" lon="17.7038292">
        <ele>22.7283</ele>
        <time>2012-04-09T11:38:50Z</time>
      </trkpt>
      <trkpt lat="59.878974" lon="17.7030413">
        <ele>22.7283</ele>
        <time>2012-04-09T11:38:59Z</time>
      </trkpt>
      <trkpt lat="59.8787357" lon="17.7023689">
        <ele>23.209</ele>
        <time>2012-04-09T11:39:07Z</time>
      </trkpt>
      <trkpt lat="59.8783945" lon="17.7014156">
        <ele>23.6896</ele>
        <time>2012-04-09T11:39:19Z</time>
      </trkpt>
      <trkpt lat="59.8780546" lon="17.7005629">
        <ele>23.6896</ele>
        <time>2012-04-09T11:39:30Z</time>
      </trkpt>
      <trkpt lat="59.8777349" lon="17.699598">
        <ele>23.6896</ele>
        <time>2012-04-09T11:39:41Z</time>
      </trkpt>
      <trkpt lat="59.8775128" lon="17.6988454">
        <ele>24.1703</ele>
        <time>2012-04-09T11:39:49Z</time>
      </trkpt>
      <trkpt lat="59.87722" lon="17.6976279">
        <ele>23.6896</ele>
        <time>2012-04-09T11:40:01Z</time>
      </trkpt>
      <trkpt lat="59.8770207" lon="17.6968418">
        <ele>21.2864</ele>
        <time>2012-04-09T11:40:08Z</time>
      </trkpt>
      <trkpt lat="59.8767353" lon="17.6958414">
        <ele>17.9218</ele>
        <time>2012-04-09T11:40:16Z</time>
      </trkpt>
      <trkpt lat="59.8765729" lon="17.6952053">
        <ele>17.4412</ele>
        <time>2012-04-09T11:40:21Z</time>
      </trkpt>
      <trkpt lat="59.876357" lon="17.6946232">
        <ele>18.4023</ele>
        <time>2012-04-09T11:40:27Z</time>
      </trkpt>
      <trkpt lat="59.8761541" lon="17.6940761">
        <ele>19.8444</ele>
        <time>2012-04-09T11:40:34Z</time>
      </trkpt>
      <trkpt lat="59.8759032" lon="17.6934489">
        <ele>21.767</ele>
        <time>2012-04-09T11:40:43Z</time>
      </trkpt>
      <trkpt lat="59.875652" lon="17.6928291">
        <ele>23.6896</ele>
        <time>2012-04-09T11:40:52Z</time>
      </trkpt>
      <trkpt lat="59.8754287" lon="17.6923646">
        <ele>24.1703</ele>
        <time>2012-04-09T11:41:00Z</time>
      </trkpt>
      <trkpt lat="59.8753433" lon="17.6921727">
        <ele>24.651</ele>
        <time>2012-04-09T11:41:03Z</time>
      </trkpt>
      <trkpt lat="59.8751853" lon="17.6920801">
        <ele>24.651</ele>
        <time>2012-04-09T11:41:07Z</time>
      </trkpt>
      <trkpt lat="59.8751512" lon="17.6921396">
        <ele>24.651</ele>
        <time>2012-04-09T11:41:08Z</time>
      </trkpt>
      <trkpt lat="59.8748851" lon="17.6927278">
        <ele>24.1703</ele>
        <time>2012-04-09T11:41:16Z</time>
      </trkpt>
      <trkpt lat="59.8745362" lon="17.6934071">
        <ele>23.6896</ele>
        <time>2012-04-09T11:41:25Z</time>
      </trkpt>
      <trkpt lat="59.8742502" lon="17.6939466">
        <ele>23.209</ele>
        <time>2012-04-09T11:41:32Z</time>
      </trkpt>
      <trkpt lat="59.874001" lon="17.6943403">
        <ele>23.6896</ele>
        <time>2012-04-09T11:41:38Z</time>
      </trkpt>
      <trkpt lat="59.8735918" lon="17.6947257">
        <ele>24.1703</ele>
        <time>2012-04-09T11:41:47Z</time>
      </trkpt>
      <trkpt lat="59.8731004" lon="17.6949672">
        <ele>24.651</ele>
        <time>2012-04-09T11:41:57Z</time>
      </trkpt>
      <trkpt lat="59.8726419" lon="17.6950997">
        <ele>23.6896</ele>
        <time>2012-04-09T11:42:06Z</time>
      </trkpt>
      <trkpt lat="59.8722752" lon="17.6952694">
        <ele>23.209</ele>
        <time>2012-04-09T11:42:13Z</time>
      </trkpt>
      <trkpt lat="59.8718261" lon="17.6955395">
        <ele>22.2476</ele>
        <time>2012-04-09T11:42:21Z</time>
      </trkpt>
      <trkpt lat="59.8713467" lon="17.6959166">
        <ele>21.767</ele>
        <time>2012-04-09T11:42:30Z</time>
      </trkpt>
      <trkpt lat="59.8709925" lon="17.6962862">
        <ele>22.2476</ele>
        <time>2012-04-09T11:42:37Z</time>
      </trkpt>
      <trkpt lat="59.8707405" lon="17.6965209">
        <ele>23.209</ele>
        <time>2012-04-09T11:42:42Z</time>
      </trkpt>
      <trkpt lat="59.8703249" lon="17.6968768">
        <ele>24.1703</ele>
        <time>2012-04-09T11:42:50Z</time>
      </trkpt>
      <trkpt lat="59.8701037" lon="17.6969524">
        <ele>24.651</ele>
        <time>2012-04-09T11:42:54Z</time>
      </trkpt>
      <trkpt lat="59.8697632" lon="17.6969821">
        <ele>25.1317</ele>
        <time>2012-04-09T11:43:00Z</time>
      </trkpt>
      <trkpt lat="59.8695012" lon="17.6971899">
        <ele>25.1317</ele>
        <time>2012-04-09T11:43:05Z</time>
      </trkpt>
      <trkpt lat="59.8691279" lon="17.6976269">
        <ele>25.1317</ele>
        <time>2012-04-09T11:43:13Z</time>
      </trkpt>
      <trkpt lat="59.8690644" lon="17.6979315">
        <ele>24.651</ele>
        <time>2012-04-09T11:43:17Z</time>
      </trkpt>
      <trkpt lat="59.8691532" lon="17.698822">
        <ele>26.0929</ele>
        <time>2012-04-09T11:43:26Z</time>
      </trkpt>
      <trkpt lat="59.8692237" lon="17.6995079">
        <ele>24.651</ele>
        <time>2012-04-09T11:43:32Z</time>
      </trkpt>
      <trkpt lat="59.8692354" lon="17.6996005">
        <ele>24.651</ele>
        <time>2012-04-09T11:43:33Z</time>
      </trkpt>
      <trkpt lat="59.8691895" lon="17.6998845">
        <ele>24.651</ele>
        <time>2012-04-09T11:43:37Z</time>
      </trkpt>
      <trkpt lat="59.8691485" lon="17.6999233">
        <ele>24.1703</ele>
        <time>2012-04-09T11:43:38Z</time>
      </trkpt>
      <trkpt lat="59.8687454" lon="17.7002269">
        <ele>22.2476</ele>
        <time>2012-04-09T11:43:46Z</time>
      </trkpt>
      <trkpt lat="59.8684293" lon="17.7004875">
        <ele>21.2864</ele>
        <time>2012-04-09T11:43:52Z</time>
      </trkpt>
      <trkpt lat="59.868133" lon="17.7006608">
        <ele>20.8057</ele>
        <time>2012-04-09T11:43:58Z</time>
      </trkpt>
      <trkpt lat="59.8677602" lon="17.7008746">
        <ele>21.2864</ele>
        <time>2012-04-09T11:44:05Z</time>
      </trkpt>
      <trkpt lat="59.8676623" lon="17.7009371">
        <ele>21.767</ele>
        <time>2012-04-09T11:44:07Z</time>
      </trkpt>
      <trkpt lat="59.8672277" lon="17.7013338">
        <ele>22.2476</ele>
        <time>2012-04-09T11:44:16Z</time>
      </trkpt>
      <trkpt lat="59.8668092" lon="17.7018447">
        <ele>22.2476</ele>
        <time>2012-04-09T11:44:25Z</time>
      </trkpt>
      <trkpt lat="59.8665922" lon="17.7021884">
        <ele>22.7283</ele>
        <time>2012-04-09T11:44:31Z</time>
      </trkpt>
      <trkpt lat="59.8664975" lon="17.7023552">
        <ele>22.7283</ele>
        <time>2012-04-09T11:44:35Z</time>
      </trkpt>
      <trkpt lat="59.8664357" lon="17.7024682">
        <ele>22.7283</ele>
        <time>2012-04-09T11:44:41Z</time>
      </trkpt>
      <trkpt lat="59.8664585" lon="17.7024663">
        <ele>24.1703</ele>
        <time>2012-04-09T11:44:49Z</time>
      </trkpt>
      <trkpt lat="59.8664657" lon="17.7024445">
        <ele>24.1703</ele>
        <time>2012-04-09T11:44:50Z</time>
      </trkpt>
      <trkpt lat="59.8665287" lon="17.7022704">
        <ele>22.2476</ele>
        <time>2012-04-09T11:44:57Z</time>
      </trkpt>
      <trkpt lat="59.8664206" lon="17.7025988">
        <ele>21.767</ele>
        <time>2012-04-09T11:46:02Z</time>
      </trkpt>
      <trkpt lat="59.8661897" lon="17.7030988">
        <ele>22.7283</ele>
        <time>2012-04-09T11:46:09Z</time>
      </trkpt>
      <trkpt lat="59.8659295" lon="17.7036462">
        <ele>21.767</ele>
        <time>2012-04-09T11:46:16Z</time>
      </trkpt>
      <trkpt lat="59.8655556" lon="17.7043333">
        <ele>20.325</ele>
        <time>2012-04-09T11:46:24Z</time>
      </trkpt>
      <trkpt lat="59.8652194" lon="17.7048186">
        <ele>19.8444</ele>
        <time>2012-04-09T11:46:32Z</time>
      </trkpt>
      <trkpt lat="59.865178" lon="17.704866">
        <ele>19.8444</ele>
        <time>2012-04-09T11:46:33Z</time>
      </trkpt>
      <trkpt lat="59.8651197" lon="17.7051713">
        <ele>19.3638</ele>
        <time>2012-04-09T11:46:37Z</time>
      </trkpt>
      <trkpt lat="59.8651463" lon="17.7052642">
        <ele>19.3638</ele>
        <time>2012-04-09T11:46:38Z</time>
      </trkpt>
      <trkpt lat="59.8653349" lon="17.7057239">
        <ele>19.3638</ele>
        <time>2012-04-09T11:46:43Z</time>
      </trkpt>
      <trkpt lat="59.8656266" lon="17.7065801">
        <ele>19.3638</ele>
        <time>2012-04-09T11:46:51Z</time>
      </trkpt>
      <trkpt lat="59.8656951" lon="17.7067829">
        <ele>19.3638</ele>
        <time>2012-04-09T11:46:53Z</time>
      </trkpt>
      <trkpt lat="59.8657512" lon="17.7072207">
        <ele>19.3638</ele>
        <time>2012-04-09T11:46:57Z</time>
      </trkpt>
      <trkpt lat="59.8656665" lon="17.7075357">
        <ele>19.3638</ele>
        <time>2012-04-09T11:47:00Z</time>
      </trkpt>
      <trkpt lat="59.8652918" lon="17.7083109">
        <ele>18.8831</ele>
        <time>2012-04-09T11:47:08Z</time>
      </trkpt>
      <trkpt lat="59.8649713" lon="17.7087739">
        <ele>18.4023</ele>
        <time>2012-04-09T11:47:14Z</time>
      </trkpt>
      <trkpt lat="59.8643723" lon="17.7094859">
        <ele>19.3638</ele>
        <time>2012-04-09T11:47:25Z</time>
      </trkpt>
      <trkpt lat="59.8639771" lon="17.7100567">
        <ele>20.325</ele>
        <time>2012-04-09T11:47:33Z</time>
      </trkpt>
      <trkpt lat="59.8636353" lon="17.7106171">
        <ele>21.2864</ele>
        <time>2012-04-09T11:47:41Z</time>
      </trkpt>
      <trkpt lat="59.8632629" lon="17.7112455">
        <ele>21.2864</ele>
        <time>2012-04-09T11:47:49Z</time>
      </trkpt>
      <trkpt lat="59.8629977" lon="17.7115258">
        <ele>21.2864</ele>
        <time>2012-04-09T11:47:54Z</time>
      </trkpt>
      <trkpt lat="59.8628244" lon="17.7115952">
        <ele>21.767</ele>
        <time>2012-04-09T11:47:57Z</time>
      </trkpt>
      <trkpt lat="59.8627096" lon="17.7116009">
        <ele>21.767</ele>
        <time>2012-04-09T11:47:59Z</time>
      </trkpt>
      <trkpt lat="59.8625504" lon="17.7115567">
        <ele>21.767</ele>
        <time>2012-04-09T11:48:02Z</time>
      </trkpt>
      <trkpt lat="59.8622042" lon="17.7112223">
        <ele>21.2864</ele>
        <time>2012-04-09T11:48:09Z</time>
      </trkpt>
      <trkpt lat="59.861985" lon="17.7107812">
        <ele>20.8057</ele>
        <time>2012-04-09T11:48:14Z</time>
      </trkpt>
      <trkpt lat="59.8617493" lon="17.7102256">
        <ele>20.8057</ele>
        <time>2012-04-09T11:48:20Z</time>
      </trkpt>
      <trkpt lat="59.8614059" lon="17.7094346">
        <ele>21.2864</ele>
        <time>2012-04-09T11:48:28Z</time>
      </trkpt>
      <trkpt lat="59.8610778" lon="17.7088012">
        <ele>21.767</ele>
        <time>2012-04-09T11:48:35Z</time>
      </trkpt>
      <trkpt lat="59.8607184" lon="17.7082213">
        <ele>20.8057</ele>
        <time>2012-04-09T11:48:43Z</time>
      </trkpt>
      <trkpt lat="59.8602719" lon="17.7075837">
        <ele>20.8057</ele>
        <time>2012-04-09T11:48:52Z</time>
      </trkpt>
      <trkpt lat="59.8597917" lon="17.706975">
        <ele>20.8057</ele>
        <time>2012-04-09T11:49:01Z</time>
      </trkpt>
      <trkpt lat="59.859426" lon="17.7064108">
        <ele>20.8057</ele>
        <time>2012-04-09T11:49:09Z</time>
      </trkpt>
      <trkpt lat="59.8593037" lon="17.7062044">
        <ele>21.2864</ele>
        <time>2012-04-09T11:49:12Z</time>
      </trkpt>
      <trkpt lat="59.8590177" lon="17.7059314">
        <ele>21.2864</ele>
        <time>2012-04-09T11:49:18Z</time>
      </trkpt>
      <trkpt lat="59.8588672" lon="17.705809">
        <ele>21.2864</ele>
        <time>2012-04-09T11:49:21Z</time>
      </trkpt>
      <trkpt lat="59.8586852" lon="17.7058831">
        <ele>21.2864</ele>
        <time>2012-04-09T11:49:25Z</time>
      </trkpt>
      <trkpt lat="59.8586427" lon="17.7060658">
        <ele>20.8057</ele>
        <time>2012-04-09T11:49:27Z</time>
      </trkpt>
      <trkpt lat="59.85852" lon="17.7068983">
        <ele>20.325</ele>
        <time>2012-04-09T11:49:35Z</time>
      </trkpt>
      <trkpt lat="59.8584242" lon="17.7077956">
        <ele>20.8057</ele>
        <time>2012-04-09T11:49:43Z</time>
      </trkpt>
      <trkpt lat="59.8583302" lon="17.7086093">
        <ele>22.2476</ele>
        <time>2012-04-09T11:49:51Z</time>
      </trkpt>
      <trkpt lat="59.8582972" lon="17.709307">
        <ele>23.209</ele>
        <time>2012-04-09T11:49:58Z</time>
      </trkpt>
      <trkpt lat="59.8583574" lon="17.7099345">
        <ele>23.6896</ele>
        <time>2012-04-09T11:50:04Z</time>
      </trkpt>
      <trkpt lat="59.8584501" lon="17.7105474">
        <ele>23.6896</ele>
        <time>2012-04-09T11:50:10Z</time>
      </trkpt>
      <trkpt lat="59.8585132" lon="17.7111553">
        <ele>23.6896</ele>
        <time>2012-04-09T11:50:15Z</time>
      </trkpt>
      <trkpt lat="59.8584542" lon="17.7117837">
        <ele>23.209</ele>
        <time>2012-04-09T11:50:20Z</time>
      </trkpt>
      <trkpt lat="59.8582646" lon="17.7127836">
        <ele>22.2476</ele>
        <time>2012-04-09T11:50:28Z</time>
      </trkpt>
      <trkpt lat="59.858158" lon="17.7136999">
        <ele>21.767</ele>
        <time>2012-04-09T11:50:35Z</time>
      </trkpt>
      <trkpt lat="59.8581081" lon="17.7139375">
        <ele>21.767</ele>
        <time>2012-04-09T11:50:37Z</time>
      </trkpt>
      <trkpt lat="59.8578222" lon="17.7147958">
        <ele>22.2476</ele>
        <time>2012-04-09T11:50:45Z</time>
      </trkpt>
      <trkpt lat="59.8576464" lon="17.7156643">
        <ele>22.2476</ele>
        <time>2012-04-09T11:50:52Z</time>
      </trkpt>
      <trkpt lat="59.8576202" lon="17.7159252">
        <ele>22.2476</ele>
        <time>2012-04-09T11:50:54Z</time>
      </trkpt>
      <trkpt lat="59.8576414" lon="17.7169408">
        <ele>21.767</ele>
        <time>2012-04-09T11:51:02Z</time>
      </trkpt>
      <trkpt lat="59.8576532" lon="17.7181387">
        <ele>21.767</ele>
        <time>2012-04-09T11:51:11Z</time>
      </trkpt>
      <trkpt lat="59.8576583" lon="17.7193002">
        <ele>21.767</ele>
        <time>2012-04-09T11:51:20Z</time>
      </trkpt>
      <trkpt lat="59.8576922" lon="17.7203232">
        <ele>22.2476</ele>
        <time>2012-04-09T11:51:28Z</time>
      </trkpt>
      <trkpt lat="59.8576858" lon="17.7211458">
        <ele>23.6896</ele>
        <time>2012-04-09T11:51:35Z</time>
      </trkpt>
      <trkpt lat="59.8576332" lon="17.7218544">
        <ele>24.1703</ele>
        <time>2012-04-09T11:51:41Z</time>
      </trkpt>
      <trkpt lat="59.8574548" lon="17.7223627">
        <ele>24.1703</ele>
        <time>2012-04-09T11:51:46Z</time>
      </trkpt>
      <trkpt lat="59.8570555" lon="17.7230565">
        <ele>22.7283</ele>
        <time>2012-04-09T11:51:54Z</time>
      </trkpt>
      <trkpt lat="59.8565943" lon="17.7239338">
        <ele>21.767</ele>
        <time>2012-04-09T11:52:03Z</time>
      </trkpt>
      <trkpt lat="59.85625" lon="17.7247483">
        <ele>21.2864</ele>
        <time>2012-04-09T11:52:10Z</time>
      </trkpt>
      <trkpt lat="59.8558699" lon="17.725657">
        <ele>20.8057</ele>
        <time>2012-04-09T11:52:18Z</time>
      </trkpt>
      <trkpt lat="59.8554449" lon="17.7268742">
        <ele>20.8057</ele>
        <time>2012-04-09T11:52:28Z</time>
      </trkpt>
      <trkpt lat="59.8550997" lon="17.7278017">
        <ele>20.8057</ele>
        <time>2012-04-09T11:52:36Z</time>
      </trkpt>
      <trkpt lat="59.8547592" lon="17.7286899">
        <ele>20.8057</ele>
        <time>2012-04-09T11:52:44Z</time>
      </trkpt>
      <trkpt lat="59.8543847" lon="17.7296427">
        <ele>20.8057</ele>
        <time>2012-04-09T11:52:53Z</time>
      </trkpt>
      <trkpt lat="59.8540926" lon="17.7305198">
        <ele>18.8831</ele>
        <time>2012-04-09T11:53:00Z</time>
      </trkpt>
      <trkpt lat="59.8539386" lon="17.7313178">
        <ele>16.4797</ele>
        <time>2012-04-09T11:53:05Z</time>
      </trkpt>
      <trkpt lat="59.8537796" lon="17.7327082">
        <ele>15.0377</ele>
        <time>2012-04-09T11:53:13Z</time>
      </trkpt>
      <trkpt lat="59.8536845" lon="17.7333994">
        <ele>16.4797</ele>
        <time>2012-04-09T11:53:17Z</time>
      </trkpt>
      <trkpt lat="59.8536108" lon="17.7336918">
        <ele>16.9604</ele>
        <time>2012-04-09T11:53:19Z</time>
      </trkpt>
      <trkpt lat="59.8533884" lon="17.7342294">
        <ele>18.4023</ele>
        <time>2012-04-09T11:53:24Z</time>
      </trkpt>
      <trkpt lat="59.8530678" lon="17.7346573">
        <ele>20.325</ele>
        <time>2012-04-09T11:53:31Z</time>
      </trkpt>
      <trkpt lat="59.8526762" lon="17.7351274">
        <ele>20.8057</ele>
        <time>2012-04-09T11:53:39Z</time>
      </trkpt>
      <trkpt lat="59.8520791" lon="17.7358412">
        <ele>21.2864</ele>
        <time>2012-04-09T11:53:50Z</time>
      </trkpt>
      <trkpt lat="59.8517719" lon="17.7363054">
        <ele>21.2864</ele>
        <time>2012-04-09T11:53:56Z</time>
      </trkpt>
      <trkpt lat="59.8513439" lon="17.7369041">
        <ele>21.2864</ele>
        <time>2012-04-09T11:54:04Z</time>
      </trkpt>
      <trkpt lat="59.8507513" lon="17.737424">
        <ele>21.2864</ele>
        <time>2012-04-09T11:54:14Z</time>
      </trkpt>
      <trkpt lat="59.8502236" lon="17.7378123">
        <ele>22.2476</ele>
        <time>2012-04-09T11:54:23Z</time>
      </trkpt>
      <trkpt lat="59.8498526" lon="17.7379609">
        <ele>22.2476</ele>
        <time>2012-04-09T11:54:29Z</time>
      </trkpt>
      <trkpt lat="59.8492953" lon="17.7381789">
        <ele>22.7283</ele>
        <time>2012-04-09T11:54:38Z</time>
      </trkpt>
      <trkpt lat="59.8487577" lon="17.7384389">
        <ele>22.2476</ele>
        <time>2012-04-09T11:54:47Z</time>
      </trkpt>
      <trkpt lat="59.8481505" lon="17.738734">
        <ele>22.2476</ele>
        <time>2012-04-09T11:54:57Z</time>
      </trkpt>
      <trkpt lat="59.8477545" lon="17.7388729">
        <ele>22.2476</ele>
        <time>2012-04-09T11:55:04Z</time>
      </trkpt>
      <trkpt lat="59.8472801" lon="17.7390319">
        <ele>22.7283</ele>
        <time>2012-04-09T11:55:12Z</time>
      </trkpt>
      <trkpt lat="59.8467376" lon="17.7392337">
        <ele>22.7283</ele>
        <time>2012-04-09T11:55:21Z</time>
      </trkpt>
      <trkpt lat="59.8460784" lon="17.7394785">
        <ele>23.209</ele>
        <time>2012-04-09T11:55:32Z</time>
      </trkpt>
      <trkpt lat="59.8454791" lon="17.7397485">
        <ele>23.209</ele>
        <time>2012-04-09T11:55:42Z</time>
      </trkpt>
      <trkpt lat="59.8450091" lon="17.7400034">
        <ele>23.209</ele>
        <time>2012-04-09T11:55:50Z</time>
      </trkpt>
      <trkpt lat="59.8446803" lon="17.7403684">
        <ele>23.209</ele>
        <time>2012-04-09T11:55:57Z</time>
      </trkpt>
      <trkpt lat="59.8446" lon="17.7404622">
        <ele>23.209</ele>
        <time>2012-04-09T11:55:59Z</time>
      </trkpt>
      <trkpt lat="59.844561" lon="17.7404987">
        <ele>23.209</ele>
        <time>2012-04-09T11:56:00Z</time>
      </trkpt>
      <trkpt lat="59.8443063" lon="17.7406131">
        <ele>23.6896</ele>
        <time>2012-04-09T11:56:18Z</time>
      </trkpt>
      <trkpt lat="59.8442576" lon="17.7406608">
        <ele>23.209</ele>
        <time>2012-04-09T11:56:19Z</time>
      </trkpt>
      <trkpt lat="59.8439832" lon="17.7406173">
        <ele>23.209</ele>
        <time>2012-04-09T11:56:26Z</time>
      </trkpt>
      <trkpt lat="59.8436479" lon="17.7407422">
        <ele>23.6896</ele>
        <time>2012-04-09T11:56:33Z</time>
      </trkpt>
      <trkpt lat="59.8431703" lon="17.7410259">
        <ele>25.6123</ele>
        <time>2012-04-09T11:56:43Z</time>
      </trkpt>
      <trkpt lat="59.842812" lon="17.7412394">
        <ele>25.6123</ele>
        <time>2012-04-09T11:56:50Z</time>
      </trkpt>
      <trkpt lat="59.8424494" lon="17.7413808">
        <ele>25.6123</ele>
        <time>2012-04-09T11:56:57Z</time>
      </trkpt>
      <trkpt lat="59.8419802" lon="17.7415391">
        <ele>25.1317</ele>
        <time>2012-04-09T11:57:05Z</time>
      </trkpt>
      <trkpt lat="59.8413473" lon="17.741686">
        <ele>24.651</ele>
        <time>2012-04-09T11:57:15Z</time>
      </trkpt>
      <trkpt lat="59.8408077" lon="17.7417962">
        <ele>25.1317</ele>
        <time>2012-04-09T11:57:24Z</time>
      </trkpt>
      <trkpt lat="59.8401691" lon="17.7419128">
        <ele>25.1317</ele>
        <time>2012-04-09T11:57:35Z</time>
      </trkpt>
      <trkpt lat="59.8395301" lon="17.7420283">
        <ele>25.6123</ele>
        <time>2012-04-09T11:57:46Z</time>
      </trkpt>
      <trkpt lat="59.8389904" lon="17.7421852">
        <ele>25.6123</ele>
        <time>2012-04-09T11:57:56Z</time>
      </trkpt>
      <trkpt lat="59.838441" lon="17.7424179">
        <ele>26.0929</ele>
        <time>2012-04-09T11:58:06Z</time>
      </trkpt>
      <trkpt lat="59.8379449" lon="17.7426521">
        <ele>26.5736</ele>
        <time>2012-04-09T11:58:15Z</time>
      </trkpt>
      <trkpt lat="59.8375119" lon="17.7428606">
        <ele>27.0543</ele>
        <time>2012-04-09T11:58:23Z</time>
      </trkpt>
      <trkpt lat="59.8370426" lon="17.743128">
        <ele>27.5349</ele>
        <time>2012-04-09T11:58:32Z</time>
      </trkpt>
      <trkpt lat="59.8365724" lon="17.7434856">
        <ele>27.5349</ele>
        <time>2012-04-09T11:58:41Z</time>
      </trkpt>
      <trkpt lat="59.8361845" lon="17.7438133">
        <ele>27.5349</ele>
        <time>2012-04-09T11:58:48Z</time>
      </trkpt>
      <trkpt lat="59.8357544" lon="17.7441529">
        <ele>27.0543</ele>
        <time>2012-04-09T11:58:56Z</time>
      </trkpt>
      <trkpt lat="59.8353681" lon="17.7444333">
        <ele>26.5736</ele>
        <time>2012-04-09T11:59:03Z</time>
      </trkpt>
      <trkpt lat="59.8349626" lon="17.744595">
        <ele>26.5736</ele>
        <time>2012-04-09T11:59:10Z</time>
      </trkpt>
      <trkpt lat="59.8345549" lon="17.7445588">
        <ele>26.5736</ele>
        <time>2012-04-09T11:59:17Z</time>
      </trkpt>
      <trkpt lat="59.8340497" lon="17.7443645">
        <ele>26.5736</ele>
        <time>2012-04-09T11:59:26Z</time>
      </trkpt>
      <trkpt lat="59.8335249" lon="17.7441299">
        <ele>26.5736</ele>
        <time>2012-04-09T11:59:36Z</time>
      </trkpt>
      <trkpt lat="59.8331166" lon="17.7439097">
        <ele>26.0929</ele>
        <time>2012-04-09T11:59:44Z</time>
      </trkpt>
      <trkpt lat="59.8326887" lon="17.7435008">
        <ele>26.0929</ele>
        <time>2012-04-09T11:59:53Z</time>
      </trkpt>
      <trkpt lat="59.8325459" lon="17.7432954">
        <ele>25.6123</ele>
        <time>2012-04-09T11:59:56Z</time>
      </trkpt>
      <trkpt lat="59.8323727" lon="17.7428004">
        <ele>25.1317</ele>
        <time>2012-04-09T12:00:01Z</time>
      </trkpt>
      <trkpt lat="59.8321008" lon="17.7421332">
        <ele>21.767</ele>
        <time>2012-04-09T12:00:07Z</time>
      </trkpt>
      <trkpt lat="59.8316725" lon="17.7413453">
        <ele>19.8444</ele>
        <time>2012-04-09T12:00:15Z</time>
      </trkpt>
      <trkpt lat="59.8312272" lon="17.7407535">
        <ele>18.8831</ele>
        <time>2012-04-09T12:00:23Z</time>
      </trkpt>
      <trkpt lat="59.8306889" lon="17.7402033">
        <ele>17.4412</ele>
        <time>2012-04-09T12:00:32Z</time>
      </trkpt>
      <trkpt lat="59.8300748" lon="17.7395808">
        <ele>15.0377</ele>
        <time>2012-04-09T12:00:42Z</time>
      </trkpt>
      <trkpt lat="59.8295525" lon="17.7390294">
        <ele>10.7118</ele>
        <time>2012-04-09T12:00:50Z</time>
      </trkpt>
      <trkpt lat="59.8290208" lon="17.7383357">
        <ele>7.82788</ele>
        <time>2012-04-09T12:00:58Z</time>
      </trkpt>
      <trkpt lat="59.8288987" lon="17.7381975">
        <ele>7.82788</ele>
        <time>2012-04-09T12:01:00Z</time>
      </trkpt>
      <trkpt lat="59.8286966" lon="17.7378526">
        <ele>9.75061</ele>
        <time>2012-04-09T12:01:04Z</time>
      </trkpt>
      <trkpt lat="59.8283428" lon="17.7371472">
        <ele>10.2312</ele>
        <time>2012-04-09T12:01:12Z</time>
      </trkpt>
      <trkpt lat="59.8279418" lon="17.7362908">
        <ele>11.1925</ele>
        <time>2012-04-09T12:01:22Z</time>
      </trkpt>
      <trkpt lat="59.8275218" lon="17.7353471">
        <ele>11.1925</ele>
        <time>2012-04-09T12:01:33Z</time>
      </trkpt>
      <trkpt lat="59.8271698" lon="17.7345813">
        <ele>11.1925</ele>
        <time>2012-04-09T12:01:42Z</time>
      </trkpt>
      <trkpt lat="59.8267779" lon="17.7337303">
        <ele>10.7118</ele>
        <time>2012-04-09T12:01:52Z</time>
      </trkpt>
      <trkpt lat="59.826391" lon="17.7328109">
        <ele>10.7118</ele>
        <time>2012-04-09T12:02:02Z</time>
      </trkpt>
      <trkpt lat="59.8261345" lon="17.7320285">
        <ele>10.7118</ele>
        <time>2012-04-09T12:02:10Z</time>
      </trkpt>
      <trkpt lat="59.825907" lon="17.7312739">
        <ele>10.7118</ele>
        <time>2012-04-09T12:02:18Z</time>
      </trkpt>
      <trkpt lat="59.8257878" lon="17.730805">
        <ele>10.7118</ele>
        <time>2012-04-09T12:02:24Z</time>
      </trkpt>
      <trkpt lat="59.8257605" lon="17.7307122">
        <ele>10.2312</ele>
        <time>2012-04-09T12:02:26Z</time>
      </trkpt>
      <trkpt lat="59.8256541" lon="17.7306374">
        <ele>10.2312</ele>
        <time>2012-04-09T12:02:30Z</time>
      </trkpt>
      <trkpt lat="59.8255423" lon="17.7307266">
        <ele>9.75061</ele>
        <time>2012-04-09T12:02:33Z</time>
      </trkpt>
      <trkpt lat="59.8251657" lon="17.7312407">
        <ele>9.75061</ele>
        <time>2012-04-09T12:02:42Z</time>
      </trkpt>
      <trkpt lat="59.8247974" lon="17.7317249">
        <ele>10.2312</ele>
        <time>2012-04-09T12:02:50Z</time>
      </trkpt>
      <trkpt lat="59.8244339" lon="17.7322154">
        <ele>10.2312</ele>
        <time>2012-04-09T12:02:58Z</time>
      </trkpt>
      <trkpt lat="59.8240262" lon="17.7327745">
        <ele>10.7118</ele>
        <time>2012-04-09T12:03:07Z</time>
      </trkpt>
      <trkpt lat="59.8235987" lon="17.7333557">
        <ele>12.1538</ele>
        <time>2012-04-09T12:03:17Z</time>
      </trkpt>
      <trkpt lat="59.8231057" lon="17.7340193">
        <ele>13.1151</ele>
        <time>2012-04-09T12:03:29Z</time>
      </trkpt>
      <trkpt lat="59.8226819" lon="17.7345907">
        <ele>15.0377</ele>
        <time>2012-04-09T12:03:40Z</time>
      </trkpt>
      <trkpt lat="59.8222777" lon="17.7351387">
        <ele>15.999</ele>
        <time>2012-04-09T12:03:51Z</time>
      </trkpt>
      <trkpt lat="59.8219695" lon="17.7355629">
        <ele>17.4412</ele>
        <time>2012-04-09T12:04:00Z</time>
      </trkpt>
      <trkpt lat="59.821679" lon="17.735986">
        <ele>17.4412</ele>
        <time>2012-04-09T12:04:10Z</time>
      </trkpt>
      <trkpt lat="59.8214253" lon="17.736345">
        <ele>16.9604</ele>
        <time>2012-04-09T12:04:18Z</time>
      </trkpt>
      <trkpt lat="59.821042" lon="17.7368604">
        <ele>16.9604</ele>
        <time>2012-04-09T12:04:29Z</time>
      </trkpt>
      <trkpt lat="59.8207341" lon="17.7372549">
        <ele>20.325</ele>
        <time>2012-04-09T12:04:38Z</time>
      </trkpt>
      <trkpt lat="59.8204747" lon="17.7375836">
        <ele>22.2476</ele>
        <time>2012-04-09T12:04:47Z</time>
      </trkpt>
      <trkpt lat="59.8202542" lon="17.7378599">
        <ele>22.7283</ele>
        <time>2012-04-09T12:04:55Z</time>
      </trkpt>
      <trkpt lat="59.8199294" lon="17.7382427">
        <ele>24.1703</ele>
        <time>2012-04-09T12:05:05Z</time>
      </trkpt>
      <trkpt lat="59.8195884" lon="17.7386327">
        <ele>23.6896</ele>
        <time>2012-04-09T12:05:13Z</time>
      </trkpt>
      <trkpt lat="59.819243" lon="17.7390445">
        <ele>23.209</ele>
        <time>2012-04-09T12:05:20Z</time>
      </trkpt>
      <trkpt lat="59.8187886" lon="17.7395262">
        <ele>23.209</ele>
        <time>2012-04-09T12:05:29Z</time>
      </trkpt>
      <trkpt lat="59.8184203" lon="17.739934">
        <ele>23.6896</ele>
        <time>2012-04-09T12:05:36Z</time>
      </trkpt>
      <trkpt lat="59.8179012" lon="17.7405224">
        <ele>24.651</ele>
        <time>2012-04-09T12:05:46Z</time>
      </trkpt>
      <trkpt lat="59.8174659" lon="17.7410175">
        <ele>24.651</ele>
        <time>2012-04-09T12:05:55Z</time>
      </trkpt>
      <trkpt lat="59.8170258" lon="17.7415082">
        <ele>25.1317</ele>
        <time>2012-04-09T12:06:04Z</time>
      </trkpt>
      <trkpt lat="59.816612" lon="17.741953">
        <ele>24.1703</ele>
        <time>2012-04-09T12:06:12Z</time>
      </trkpt>
      <trkpt lat="59.8165563" lon="17.7420195">
        <ele>23.6896</ele>
        <time>2012-04-09T12:06:13Z</time>
      </trkpt>
      <trkpt lat="59.8161904" lon="17.742581">
        <ele>21.767</ele>
        <time>2012-04-09T12:06:20Z</time>
      </trkpt>
      <trkpt lat="59.8159228" lon="17.7431193">
        <ele>19.3638</ele>
        <time>2012-04-09T12:06:26Z</time>
      </trkpt>
      <trkpt lat="59.8155134" lon="17.7439698">
        <ele>16.4797</ele>
        <time>2012-04-09T12:06:34Z</time>
      </trkpt>
      <trkpt lat="59.815062" lon="17.7449322">
        <ele>15.5184</ele>
        <time>2012-04-09T12:06:43Z</time>
      </trkpt>
      <trkpt lat="59.8146286" lon="17.7458409">
        <ele>14.557</ele>
        <time>2012-04-09T12:06:52Z</time>
      </trkpt>
      <trkpt lat="59.8142115" lon="17.7467125">
        <ele>13.5958</ele>
        <time>2012-04-09T12:07:01Z</time>
      </trkpt>
      <trkpt lat="59.8137608" lon="17.747636">
        <ele>13.1151</ele>
        <time>2012-04-09T12:07:11Z</time>
      </trkpt>
      <trkpt lat="59.8133117" lon="17.7485799">
        <ele>12.1538</ele>
        <time>2012-04-09T12:07:21Z</time>
      </trkpt>
      <trkpt lat="59.8129289" lon="17.749375">
        <ele>12.1538</ele>
        <time>2012-04-09T12:07:30Z</time>
      </trkpt>
      <trkpt lat="59.8123845" lon="17.7505185">
        <ele>11.6732</ele>
        <time>2012-04-09T12:07:43Z</time>
      </trkpt>
      <trkpt lat="59.8119928" lon="17.7513339">
        <ele>11.6732</ele>
        <time>2012-04-09T12:07:52Z</time>
      </trkpt>
      <trkpt lat="59.8116789" lon="17.7519922">
        <ele>11.6732</ele>
        <time>2012-04-09T12:08:00Z</time>
      </trkpt>
      <trkpt lat="59.8112755" lon="17.7528428">
        <ele>11.6732</ele>
        <time>2012-04-09T12:08:10Z</time>
      </trkpt>
      <trkpt lat="59.8108419" lon="17.7537507">
        <ele>11.1925</ele>
        <time>2012-04-09T12:08:20Z</time>
      </trkpt>
      <trkpt lat="59.8104997" lon="17.7544641">
        <ele>11.1925</ele>
        <time>2012-04-09T12:08:28Z</time>
      </trkpt>
      <trkpt lat="59.8100762" lon="17.7552843">
        <ele>11.1925</ele>
        <time>2012-04-09T12:08:38Z</time>
      </trkpt>
      <trkpt lat="59.809693" lon="17.7558049">
        <ele>11.6732</ele>
        <time>2012-04-09T12:08:46Z</time>
      </trkpt>
      <trkpt lat="59.8092277" lon="17.7562221">
        <ele>11.6732</ele>
        <time>2012-04-09T12:08:55Z</time>
      </trkpt>
      <trkpt lat="59.8087398" lon="17.7564475">
        <ele>11.1925</ele>
        <time>2012-04-09T12:09:04Z</time>
      </trkpt>
      <trkpt lat="59.8082405" lon="17.7565015">
        <ele>11.6732</ele>
        <time>2012-04-09T12:09:13Z</time>
      </trkpt>
      <trkpt lat="59.8078855" lon="17.7564935">
        <ele>11.6732</ele>
        <time>2012-04-09T12:09:20Z</time>
      </trkpt>
      <trkpt lat="59.8074259" lon="17.7565724">
        <ele>12.1538</ele>
        <time>2012-04-09T12:09:29Z</time>
      </trkpt>
      <trkpt lat="59.8069985" lon="17.7567714">
        <ele>12.6344</ele>
        <time>2012-04-09T12:09:37Z</time>
      </trkpt>
      <trkpt lat="59.8065425" lon="17.7571654">
        <ele>12.6344</ele>
        <time>2012-04-09T12:09:46Z</time>
      </trkpt>
      <trkpt lat="59.806134" lon="17.7577079">
        <ele>13.1151</ele>
        <time>2012-04-09T12:09:55Z</time>
      </trkpt>
      <trkpt lat="59.8057919" lon="17.7583709">
        <ele>13.5958</ele>
        <time>2012-04-09T12:10:04Z</time>
      </trkpt>
      <trkpt lat="59.8055308" lon="17.7590989">
        <ele>13.5958</ele>
        <time>2012-04-09T12:10:12Z</time>
      </trkpt>
      <trkpt lat="59.805335" lon="17.7598882">
        <ele>13.5958</ele>
        <time>2012-04-09T12:10:19Z</time>
      </trkpt>
      <trkpt lat="59.8052075" lon="17.7607259">
        <ele>12.6344</ele>
        <time>2012-04-09T12:10:26Z</time>
      </trkpt>
      <trkpt lat="59.8051085" lon="17.7617712">
        <ele>10.7118</ele>
        <time>2012-04-09T12:10:34Z</time>
      </trkpt>
      <trkpt lat="59.805093" lon="17.7621569">
        <ele>10.2312</ele>
        <time>2012-04-09T12:10:37Z</time>
      </trkpt>
      <trkpt lat="59.8050544" lon="17.7630371">
        <ele>9.2699</ele>
        <time>2012-04-09T12:10:43Z</time>
      </trkpt>
      <trkpt lat="59.8049573" lon="17.7642359">
        <ele>10.2312</ele>
        <time>2012-04-09T12:10:52Z</time>
      </trkpt>
      <trkpt lat="59.8047946" lon="17.7653936">
        <ele>11.1925</ele>
        <time>2012-04-09T12:11:01Z</time>
      </trkpt>
      <trkpt lat="59.8045734" lon="17.7663863">
        <ele>11.6732</ele>
        <time>2012-04-09T12:11:09Z</time>
      </trkpt>
      <trkpt lat="59.8042743" lon="17.7673797">
        <ele>11.6732</ele>
        <time>2012-04-09T12:11:18Z</time>
      </trkpt>
      <trkpt lat="59.8039193" lon="17.768267">
        <ele>12.1538</ele>
        <time>2012-04-09T12:11:27Z</time>
      </trkpt>
      <trkpt lat="59.8034323" lon="17.7693088">
        <ele>12.6344</ele>
        <time>2012-04-09T12:11:38Z</time>
      </trkpt>
      <trkpt lat="59.8029426" lon="17.7703376">
        <ele>12.6344</ele>
        <time>2012-04-09T12:11:49Z</time>
      </trkpt>
      <trkpt lat="59.8025771" lon="17.7711026">
        <ele>12.6344</ele>
        <time>2012-04-09T12:11:57Z</time>
      </trkpt>
      <trkpt lat="59.802147" lon="17.7720036">
        <ele>13.1151</ele>
        <time>2012-04-09T12:12:07Z</time>
      </trkpt>
      <trkpt lat="59.8018036" lon="17.7727166">
        <ele>13.1151</ele>
        <time>2012-04-09T12:12:16Z</time>
      </trkpt>
      <trkpt lat="59.8014944" lon="17.7733548">
        <ele>13.5958</ele>
        <time>2012-04-09T12:12:24Z</time>
      </trkpt>
      <trkpt lat="59.8011269" lon="17.774104">
        <ele>13.5958</ele>
        <time>2012-04-09T12:12:33Z</time>
      </trkpt>
      <trkpt lat="59.8006324" lon="17.7751011">
        <ele>14.557</ele>
        <time>2012-04-09T12:12:45Z</time>
      </trkpt>
      <trkpt lat="59.8004248" lon="17.7754918">
        <ele>14.557</ele>
        <time>2012-04-09T12:12:51Z</time>
      </trkpt>
      <trkpt lat="59.8001207" lon="17.7759926">
        <ele>14.0764</ele>
        <time>2012-04-09T12:12:58Z</time>
      </trkpt>
      <trkpt lat="59.7996999" lon="17.7767184">
        <ele>14.0764</ele>
        <time>2012-04-09T12:13:07Z</time>
      </trkpt>
      <trkpt lat="59.7993436" lon="17.7773498">
        <ele>15.0377</ele>
        <time>2012-04-09T12:13:15Z</time>
      </trkpt>
      <trkpt lat="59.7990039" lon="17.777907">
        <ele>15.999</ele>
        <time>2012-04-09T12:13:23Z</time>
      </trkpt>
      <trkpt lat="59.7986653" lon="17.7783693">
        <ele>15.999</ele>
        <time>2012-04-09T12:13:30Z</time>
      </trkpt>
      <trkpt lat="59.7982887" lon="17.7789313">
        <ele>16.9604</ele>
        <time>2012-04-09T12:13:38Z</time>
      </trkpt>
      <trkpt lat="59.797948" lon="17.7796265">
        <ele>17.4412</ele>
        <time>2012-04-09T12:13:46Z</time>
      </trkpt>
      <trkpt lat="59.7976296" lon="17.7805419">
        <ele>16.4797</ele>
        <time>2012-04-09T12:13:55Z</time>
      </trkpt>
      <trkpt lat="59.7973449" lon="17.78141">
        <ele>17.4412</ele>
        <time>2012-04-09T12:14:03Z</time>
      </trkpt>
      <trkpt lat="59.7970705" lon="17.78216">
        <ele>16.9604</ele>
        <time>2012-04-09T12:14:10Z</time>
      </trkpt>
      <trkpt lat="59.7967913" lon="17.7829003">
        <ele>15.999</ele>
        <time>2012-04-09T12:14:17Z</time>
      </trkpt>
      <trkpt lat="59.7964052" lon="17.7839306">
        <ele>15.999</ele>
        <time>2012-04-09T12:14:27Z</time>
      </trkpt>
      <trkpt lat="59.7962006" lon="17.7847251">
        <ele>15.999</ele>
        <time>2012-04-09T12:14:34Z</time>
      </trkpt>
      <trkpt lat="59.7960678" lon="17.7853034">
        <ele>15.999</ele>
        <time>2012-04-09T12:14:39Z</time>
      </trkpt>
      <trkpt lat="59.795761" lon="17.7861534">
        <ele>15.0377</ele>
        <time>2012-04-09T12:14:47Z</time>
      </trkpt>
      <trkpt lat="59.7954205" lon="17.7867849">
        <ele>14.557</ele>
        <time>2012-04-09T12:14:54Z</time>
      </trkpt>
      <trkpt lat="59.7950403" lon="17.787498">
        <ele>14.0764</ele>
        <time>2012-04-09T12:15:02Z</time>
      </trkpt>
      <trkpt lat="59.7947576" lon="17.7881768">
        <ele>14.0764</ele>
        <time>2012-04-09T12:15:09Z</time>
      </trkpt>
      <trkpt lat="59.7946499" lon="17.7884803">
        <ele>14.0764</ele>
        <time>2012-04-09T12:15:12Z</time>
      </trkpt>
      <trkpt lat="59.794617" lon="17.7889884">
        <ele>13.5958</ele>
        <time>2012-04-09T12:15:17Z</time>
      </trkpt>
      <trkpt lat="59.7946951" lon="17.7891507">
        <ele>12.6344</ele>
        <time>2012-04-09T12:15:19Z</time>
      </trkpt>
      <trkpt lat="59.7950936" lon="17.789749">
        <ele>11.1925</ele>
        <time>2012-04-09T12:15:26Z</time>
      </trkpt>
      <trkpt lat="59.7957563" lon="17.7907202">
        <ele>10.7118</ele>
        <time>2012-04-09T12:15:37Z</time>
      </trkpt>
      <trkpt lat="59.7962314" lon="17.7914148">
        <ele>10.7118</ele>
        <time>2012-04-09T12:15:45Z</time>
      </trkpt>
      <trkpt lat="59.7968341" lon="17.792298">
        <ele>10.7118</ele>
        <time>2012-04-09T12:15:55Z</time>
      </trkpt>
      <trkpt lat="59.7973813" lon="17.7930904">
        <ele>10.2312</ele>
        <time>2012-04-09T12:16:04Z</time>
      </trkpt>
      <trkpt lat="59.7979888" lon="17.7939943">
        <ele>10.2312</ele>
        <time>2012-04-09T12:16:14Z</time>
      </trkpt>
      <trkpt lat="59.7986234" lon="17.7949136">
        <ele>9.75061</ele>
        <time>2012-04-09T12:16:24Z</time>
      </trkpt>
      <trkpt lat="59.7990778" lon="17.7955734">
        <ele>9.75061</ele>
        <time>2012-04-09T12:16:31Z</time>
      </trkpt>
      <trkpt lat="59.7997141" lon="17.7965624">
        <ele>9.75061</ele>
        <time>2012-04-09T12:16:41Z</time>
      </trkpt>
      <trkpt lat="59.7999689" lon="17.7972513">
        <ele>9.2699</ele>
        <time>2012-04-09T12:16:46Z</time>
      </trkpt>
      <trkpt lat="59.8001003" lon="17.7978908">
        <ele>9.75061</ele>
        <time>2012-04-09T12:16:50Z</time>
      </trkpt>
      <trkpt lat="59.8001584" lon="17.7989875">
        <ele>9.75061</ele>
        <time>2012-04-09T12:16:57Z</time>
      </trkpt>
      <trkpt lat="59.800264" lon="17.8006204">
        <ele>10.2312</ele>
        <time>2012-04-09T12:17:08Z</time>
      </trkpt>
      <trkpt lat="59.8004595" lon="17.8017005">
        <ele>10.7118</ele>
        <time>2012-04-09T12:17:16Z</time>
      </trkpt>
      <trkpt lat="59.8006886" lon="17.8028085">
        <ele>11.6732</ele>
        <time>2012-04-09T12:17:24Z</time>
      </trkpt>
      <trkpt lat="59.8008834" lon="17.8037228">
        <ele>12.1538</ele>
        <time>2012-04-09T12:17:31Z</time>
      </trkpt>
      <trkpt lat="59.8011581" lon="17.8049743">
        <ele>13.5958</ele>
        <time>2012-04-09T12:17:41Z</time>
      </trkpt>
      <trkpt lat="59.8014234" lon="17.8061629">
        <ele>15.0377</ele>
        <time>2012-04-09T12:17:51Z</time>
      </trkpt>
      <trkpt lat="59.8015972" lon="17.8069566">
        <ele>17.4412</ele>
        <time>2012-04-09T12:17:59Z</time>
      </trkpt>
      <trkpt lat="59.8016538" lon="17.8073265">
        <ele>18.4023</ele>
        <time>2012-04-09T12:18:03Z</time>
      </trkpt>
      <trkpt lat="59.8016449" lon="17.8078571">
        <ele>19.8444</ele>
        <time>2012-04-09T12:18:09Z</time>
      </trkpt>
      <trkpt lat="59.8016379" lon="17.8079345">
        <ele>19.8444</ele>
        <time>2012-04-09T12:18:10Z</time>
      </trkpt>
      <trkpt lat="59.80157" lon="17.8082045">
        <ele>19.8444</ele>
        <time>2012-04-09T12:18:14Z</time>
      </trkpt>
      <trkpt lat="59.8013851" lon="17.8086398">
        <ele>19.8444</ele>
        <time>2012-04-09T12:18:21Z</time>
      </trkpt>
      <trkpt lat="59.801198" lon="17.8092437">
        <ele>19.3638</ele>
        <time>2012-04-09T12:18:28Z</time>
      </trkpt>
      <trkpt lat="59.8011587" lon="17.8094445">
        <ele>19.3638</ele>
        <time>2012-04-09T12:18:30Z</time>
      </trkpt>
      <trkpt lat="59.8010982" lon="17.8102073">
        <ele>17.9218</ele>
        <time>2012-04-09T12:18:36Z</time>
      </trkpt>
      <trkpt lat="59.8009286" lon="17.8106719">
        <ele>16.9604</ele>
        <time>2012-04-09T12:18:40Z</time>
      </trkpt>
      <trkpt lat="59.8008058" lon="17.8108091">
        <ele>16.9604</ele>
        <time>2012-04-09T12:18:42Z</time>
      </trkpt>
      <trkpt lat="59.8006319" lon="17.8111846">
        <ele>16.9604</ele>
        <time>2012-04-09T12:18:46Z</time>
      </trkpt>
      <trkpt lat="59.8005685" lon="17.8115414">
        <ele>16.9604</ele>
        <time>2012-04-09T12:18:49Z</time>
      </trkpt>
      <trkpt lat="59.8005258" lon="17.8124196">
        <ele>17.4412</ele>
        <time>2012-04-09T12:18:56Z</time>
      </trkpt>
      <trkpt lat="59.8003988" lon="17.813006">
        <ele>17.9218</ele>
        <time>2012-04-09T12:19:01Z</time>
      </trkpt>
      <trkpt lat="59.8000967" lon="17.8138462">
        <ele>19.3638</ele>
        <time>2012-04-09T12:19:10Z</time>
      </trkpt>
      <trkpt lat="59.7998598" lon="17.8144438">
        <ele>21.2864</ele>
        <time>2012-04-09T12:19:18Z</time>
      </trkpt>
      <trkpt lat="59.799644" lon="17.8149708">
        <ele>23.209</ele>
        <time>2012-04-09T12:19:26Z</time>
      </trkpt>
      <trkpt lat="59.7994802" lon="17.8153627">
        <ele>23.209</ele>
        <time>2012-04-09T12:19:32Z</time>
      </trkpt>
      <trkpt lat="59.7993192" lon="17.8155836">
        <ele>22.7283</ele>
        <time>2012-04-09T12:19:36Z</time>
      </trkpt>
      <trkpt lat="59.7992249" lon="17.8156653">
        <ele>23.209</ele>
        <time>2012-04-09T12:19:38Z</time>
      </trkpt>
      <trkpt lat="59.7988276" lon="17.815808">
        <ele>23.209</ele>
        <time>2012-04-09T12:19:46Z</time>
      </trkpt>
      <trkpt lat="59.7985287" lon="17.8159697">
        <ele>23.209</ele>
        <time>2012-04-09T12:19:52Z</time>
      </trkpt>
      <trkpt lat="59.7981998" lon="17.816416">
        <ele>23.6896</ele>
        <time>2012-04-09T12:20:00Z</time>
      </trkpt>
      <trkpt lat="59.7979311" lon="17.8169983">
        <ele>24.1703</ele>
        <time>2012-04-09T12:20:07Z</time>
      </trkpt>
      <trkpt lat="59.797714" lon="17.8176793">
        <ele>22.2476</ele>
        <time>2012-04-09T12:20:13Z</time>
      </trkpt>
      <trkpt lat="59.7975521" lon="17.818557">
        <ele>20.325</ele>
        <time>2012-04-09T12:20:19Z</time>
      </trkpt>
      <trkpt lat="59.7974887" lon="17.8195683">
        <ele>19.3638</ele>
        <time>2012-04-09T12:20:25Z</time>
      </trkpt>
      <trkpt lat="59.7974102" lon="17.8210154">
        <ele>18.8831</ele>
        <time>2012-04-09T12:20:33Z</time>
      </trkpt>
      <trkpt lat="59.7974" lon="17.8223595">
        <ele>18.8831</ele>
        <time>2012-04-09T12:20:40Z</time>
      </trkpt>
      <trkpt lat="59.7974477" lon="17.8236378">
        <ele>19.3638</ele>
        <time>2012-04-09T12:20:47Z</time>
      </trkpt>
      <trkpt lat="59.7975557" lon="17.8245888">
        <ele>18.8831</ele>
        <time>2012-04-09T12:20:53Z</time>
      </trkpt>
      <trkpt lat="59.7977423" lon="17.8259022">
        <ele>17.9218</ele>
        <time>2012-04-09T12:21:01Z</time>
      </trkpt>
      <trkpt lat="59.7978202" lon="17.8271245">
        <ele>17.4412</ele>
        <time>2012-04-09T12:21:08Z</time>
      </trkpt>
      <trkpt lat="59.797948" lon="17.8282555">
        <ele>17.4412</ele>
        <time>2012-04-09T12:21:15Z</time>
      </trkpt>
      <trkpt lat="59.7981427" lon="17.8292731">
        <ele>17.9218</ele>
        <time>2012-04-09T12:21:22Z</time>
      </trkpt>
      <trkpt lat="59.7983622" lon="17.830321">
        <ele>19.3638</ele>
        <time>2012-04-09T12:21:30Z</time>
      </trkpt>
      <trkpt lat="59.7984345" lon="17.8306347">
        <ele>20.325</ele>
        <time>2012-04-09T12:21:33Z</time>
      </trkpt>
      <trkpt lat="59.7984888" lon="17.8310553">
        <ele>20.325</ele>
        <time>2012-04-09T12:21:37Z</time>
      </trkpt>
      <trkpt lat="59.7984671" lon="17.8317756">
        <ele>22.2476</ele>
        <time>2012-04-09T12:21:44Z</time>
      </trkpt>
      <trkpt lat="59.7984666" lon="17.8320375">
        <ele>23.209</ele>
        <time>2012-04-09T12:21:47Z</time>
      </trkpt>
      <trkpt lat="59.7985136" lon="17.8327375">
        <ele>23.209</ele>
        <time>2012-04-09T12:21:55Z</time>
      </trkpt>
      <trkpt lat="59.798512" lon="17.8336146">
        <ele>23.209</ele>
        <time>2012-04-09T12:22:04Z</time>
      </trkpt>
      <trkpt lat="59.7985225" lon="17.8340801">
        <ele>23.209</ele>
        <time>2012-04-09T12:22:08Z</time>
      </trkpt>
      <trkpt lat="59.7986572" lon="17.834955">
        <ele>22.2476</ele>
        <time>2012-04-09T12:22:15Z</time>
      </trkpt>
      <trkpt lat="59.7987131" lon="17.8353617">
        <ele>22.7283</ele>
        <time>2012-04-09T12:22:18Z</time>
      </trkpt>
      <trkpt lat="59.7987203" lon="17.8358902">
        <ele>23.6896</ele>
        <time>2012-04-09T12:22:22Z</time>
      </trkpt>
      <trkpt lat="59.7988193" lon="17.8362096">
        <ele>23.6896</ele>
        <time>2012-04-09T12:22:26Z</time>
      </trkpt>
      <trkpt lat="59.7989694" lon="17.8361116">
        <ele>23.6896</ele>
        <time>2012-04-09T12:22:29Z</time>
      </trkpt>
      <trkpt lat="59.799065" lon="17.8360089">
        <ele>23.6896</ele>
        <time>2012-04-09T12:22:31Z</time>
      </trkpt>
      <trkpt lat="59.7995003" lon="17.8355734">
        <ele>24.1703</ele>
        <time>2012-04-09T12:22:40Z</time>
      </trkpt>
      <trkpt lat="59.7998363" lon="17.8352837">
        <ele>25.1317</ele>
        <time>2012-04-09T12:22:47Z</time>
      </trkpt>
      <trkpt lat="59.8000321" lon="17.8351022">
        <ele>24.651</ele>
        <time>2012-04-09T12:22:51Z</time>
      </trkpt>
      <trkpt lat="59.8003319" lon="17.8350297">
        <ele>23.6896</ele>
        <time>2012-04-09T12:22:56Z</time>
      </trkpt>
      <trkpt lat="59.8005035" lon="17.8352233">
        <ele>22.7283</ele>
        <time>2012-04-09T12:22:59Z</time>
      </trkpt>
      <trkpt lat="59.8005993" lon="17.8354413">
        <ele>21.767</ele>
        <time>2012-04-09T12:23:01Z</time>
      </trkpt>
      <trkpt lat="59.8009546" lon="17.8365947">
        <ele>18.8831</ele>
        <time>2012-04-09T12:23:09Z</time>
      </trkpt>
      <trkpt lat="59.8012712" lon="17.8375519">
        <ele>15.999</ele>
        <time>2012-04-09T12:23:15Z</time>
      </trkpt>
      <trkpt lat="59.8017958" lon="17.8389966">
        <ele>13.5958</ele>
        <time>2012-04-09T12:23:24Z</time>
      </trkpt>
      <trkpt lat="59.8019813" lon="17.8396927">
        <ele>13.1151</ele>
        <time>2012-04-09T12:23:28Z</time>
      </trkpt>
      <trkpt lat="59.8021522" lon="17.8404729">
        <ele>13.5958</ele>
        <time>2012-04-09T12:23:33Z</time>
      </trkpt>
      <trkpt lat="59.8023913" lon="17.8410687">
        <ele>14.0764</ele>
        <time>2012-04-09T12:23:38Z</time>
      </trkpt>
      <trkpt lat="59.8028547" lon="17.8420095">
        <ele>15.0377</ele>
        <time>2012-04-09T12:23:47Z</time>
      </trkpt>
      <trkpt lat="59.803346" lon="17.8429485">
        <ele>15.999</ele>
        <time>2012-04-09T12:23:57Z</time>
      </trkpt>
      <trkpt lat="59.8037208" lon="17.8434173">
        <ele>16.9604</ele>
        <time>2012-04-09T12:24:04Z</time>
      </trkpt>
      <trkpt lat="59.8042014" lon="17.8439546">
        <ele>17.9218</ele>
        <time>2012-04-09T12:24:13Z</time>
      </trkpt>
      <trkpt lat="59.8045594" lon="17.8444796">
        <ele>19.3638</ele>
        <time>2012-04-09T12:24:21Z</time>
      </trkpt>
      <trkpt lat="59.8048959" lon="17.8451403">
        <ele>20.325</ele>
        <time>2012-04-09T12:24:30Z</time>
      </trkpt>
      <trkpt lat="59.8051239" lon="17.8456757">
        <ele>21.2864</ele>
        <time>2012-04-09T12:24:37Z</time>
      </trkpt>
      <trkpt lat="59.805321" lon="17.8458825">
        <ele>22.7283</ele>
        <time>2012-04-09T12:24:42Z</time>
      </trkpt>
      <trkpt lat="59.8054022" lon="17.845868">
        <ele>23.209</ele>
        <time>2012-04-09T12:24:44Z</time>
      </trkpt>
      <trkpt lat="59.8055327" lon="17.8457583">
        <ele>24.1703</ele>
        <time>2012-04-09T12:24:48Z</time>
      </trkpt>
      <trkpt lat="59.8057969" lon="17.8454244">
        <ele>25.6123</ele>
        <time>2012-04-09T12:24:57Z</time>
      </trkpt>
      <trkpt lat="59.8060374" lon="17.8451644">
        <ele>25.1317</ele>
        <time>2012-04-09T12:25:03Z</time>
      </trkpt>
      <trkpt lat="59.8065159" lon="17.8446909">
        <ele>26.0929</ele>
        <time>2012-04-09T12:25:13Z</time>
      </trkpt>
      <trkpt lat="59.8068659" lon="17.8443259">
        <ele>27.5349</ele>
        <time>2012-04-09T12:25:21Z</time>
      </trkpt>
      <trkpt lat="59.8071913" lon="17.8438521">
        <ele>28.9769</ele>
        <time>2012-04-09T12:25:30Z</time>
      </trkpt>
      <trkpt lat="59.8075207" lon="17.8434084">
        <ele>29.9381</ele>
        <time>2012-04-09T12:25:38Z</time>
      </trkpt>
      <trkpt lat="59.8077487" lon="17.8431164">
        <ele>30.4188</ele>
        <time>2012-04-09T12:25:44Z</time>
      </trkpt>
      <trkpt lat="59.8079374" lon="17.8428859">
        <ele>30.8995</ele>
        <time>2012-04-09T12:25:49Z</time>
      </trkpt>
      <trkpt lat="59.8080114" lon="17.8427762">
        <ele>30.8995</ele>
        <time>2012-04-09T12:25:51Z</time>
      </trkpt>
      <trkpt lat="59.8083502" lon="17.8423118">
        <ele>32.3416</ele>
        <time>2012-04-09T12:25:59Z</time>
      </trkpt>
      <trkpt lat="59.8087133" lon="17.8419106">
        <ele>32.3416</ele>
        <time>2012-04-09T12:26:06Z</time>
      </trkpt>
      <trkpt lat="59.8091625" lon="17.8414036">
        <ele>33.3029</ele>
        <time>2012-04-09T12:26:15Z</time>
      </trkpt>
      <trkpt lat="59.8092095" lon="17.8413572">
        <ele>33.3029</ele>
        <time>2012-04-09T12:26:16Z</time>
      </trkpt>
      <trkpt lat="59.8095613" lon="17.8411982">
        <ele>33.3029</ele>
        <time>2012-04-09T12:26:23Z</time>
      </trkpt>
      <trkpt lat="59.8099006" lon="17.8409737">
        <ele>33.7834</ele>
        <time>2012-04-09T12:26:30Z</time>
      </trkpt>
      <trkpt lat="59.8102543" lon="17.8407955">
        <ele>34.2642</ele>
        <time>2012-04-09T12:26:37Z</time>
      </trkpt>
      <trkpt lat="59.810301" lon="17.8407546">
        <ele>34.2642</ele>
        <time>2012-04-09T12:26:38Z</time>
      </trkpt>
      <trkpt lat="59.8104729" lon="17.8405315">
        <ele>34.2642</ele>
        <time>2012-04-09T12:26:42Z</time>
      </trkpt>
      <trkpt lat="59.8105612" lon="17.8404163">
        <ele>34.2642</ele>
        <time>2012-04-09T12:26:44Z</time>
      </trkpt>
      <trkpt lat="59.8109034" lon="17.840227">
        <ele>35.7061</ele>
        <time>2012-04-09T12:26:51Z</time>
      </trkpt>
      <trkpt lat="59.81127" lon="17.8402299">
        <ele>36.6675</ele>
        <time>2012-04-09T12:26:59Z</time>
      </trkpt>
      <trkpt lat="59.8117153" lon="17.8401808">
        <ele>36.6675</ele>
        <time>2012-04-09T12:27:08Z</time>
      </trkpt>
      <trkpt lat="59.8117648" lon="17.840177">
        <ele>36.6675</ele>
        <time>2012-04-09T12:27:09Z</time>
      </trkpt>
      <trkpt lat="59.8121605" lon="17.840316">
        <ele>37.6287</ele>
        <time>2012-04-09T12:27:17Z</time>
      </trkpt>
      <trkpt lat="59.8123967" lon="17.8404838">
        <ele>38.1094</ele>
        <time>2012-04-09T12:27:22Z</time>
      </trkpt>
      <trkpt lat="59.8126638" lon="17.8407566">
        <ele>36.6675</ele>
        <time>2012-04-09T12:27:27Z</time>
      </trkpt>
      <trkpt lat="59.8127992" lon="17.8408704">
        <ele>35.7061</ele>
        <time>2012-04-09T12:27:29Z</time>
      </trkpt>
      <trkpt lat="59.8133315" lon="17.8411256">
        <ele>31.8607</ele>
        <time>2012-04-09T12:27:36Z</time>
      </trkpt>
      <trkpt lat="59.8138507" lon="17.8413386">
        <ele>32.3416</ele>
        <time>2012-04-09T12:27:43Z</time>
      </trkpt>
      <trkpt lat="59.8143395" lon="17.8414737">
        <ele>31.8607</ele>
        <time>2012-04-09T12:27:50Z</time>
      </trkpt>
      <trkpt lat="59.8146856" lon="17.8413425">
        <ele>31.8607</ele>
        <time>2012-04-09T12:27:55Z</time>
      </trkpt>
      <trkpt lat="59.8148249" lon="17.8412602">
        <ele>31.8607</ele>
        <time>2012-04-09T12:27:57Z</time>
      </trkpt>
      <trkpt lat="59.8152404" lon="17.8411822">
        <ele>29.4575</ele>
        <time>2012-04-09T12:28:02Z</time>
      </trkpt>
      <trkpt lat="59.8156177" lon="17.8412007">
        <ele>27.5349</ele>
        <time>2012-04-09T12:28:06Z</time>
      </trkpt>
      <trkpt lat="59.8160246" lon="17.8413855">
        <ele>28.9769</ele>
        <time>2012-04-09T12:28:11Z</time>
      </trkpt>
      <trkpt lat="59.8161633" lon="17.8413877">
        <ele>29.4575</ele>
        <time>2012-04-09T12:28:13Z</time>
      </trkpt>
      <trkpt lat="59.816643" lon="17.8413176">
        <ele>30.8995</ele>
        <time>2012-04-09T12:28:21Z</time>
      </trkpt>
      <trkpt lat="59.8168019" lon="17.8412789">
        <ele>30.8995</ele>
        <time>2012-04-09T12:28:24Z</time>
      </trkpt>
      <trkpt lat="59.8171095" lon="17.8411063">
        <ele>32.8223</ele>
        <time>2012-04-09T12:28:30Z</time>
      </trkpt>
      <trkpt lat="59.8171605" lon="17.8410894">
        <ele>33.3029</ele>
        <time>2012-04-09T12:28:31Z</time>
      </trkpt>
      <trkpt lat="59.8173554" lon="17.8411727">
        <ele>34.2642</ele>
        <time>2012-04-09T12:28:36Z</time>
      </trkpt>
      <trkpt lat="59.8174805" lon="17.8413874">
        <ele>35.7061</ele>
        <time>2012-04-09T12:28:42Z</time>
      </trkpt>
      <trkpt lat="59.8174952" lon="17.8414281">
        <ele>35.7061</ele>
        <time>2012-04-09T12:28:43Z</time>
      </trkpt>
      <trkpt lat="59.817638" lon="17.8417362">
        <ele>37.6287</ele>
        <time>2012-04-09T12:28:51Z</time>
      </trkpt>
      <trkpt lat="59.8177959" lon="17.8418854">
        <ele>38.5901</ele>
        <time>2012-04-09T12:28:57Z</time>
      </trkpt>
      <trkpt lat="59.8180375" lon="17.8419243">
        <ele>40.9934</ele>
        <time>2012-04-09T12:29:06Z</time>
      </trkpt>
      <trkpt lat="59.8182285" lon="17.8418694">
        <ele>41.9547</ele>
        <time>2012-04-09T12:29:12Z</time>
      </trkpt>
      <trkpt lat="59.8184923" lon="17.8417882">
        <ele>41.474</ele>
        <time>2012-04-09T12:29:18Z</time>
      </trkpt>
      <trkpt lat="59.8185947" lon="17.8417688">
        <ele>41.474</ele>
        <time>2012-04-09T12:29:20Z</time>
      </trkpt>
      <trkpt lat="59.8190191" lon="17.8418208">
        <ele>41.9547</ele>
        <time>2012-04-09T12:29:28Z</time>
      </trkpt>
      <trkpt lat="59.8193444" lon="17.8419839">
        <ele>43.3966</ele>
        <time>2012-04-09T12:29:35Z</time>
      </trkpt>
      <trkpt lat="59.8197312" lon="17.8423666">
        <ele>43.8773</ele>
        <time>2012-04-09T12:29:44Z</time>
      </trkpt>
      <trkpt lat="59.8199353" lon="17.8425106">
        <ele>43.8773</ele>
        <time>2012-04-09T12:29:49Z</time>
      </trkpt>
      <trkpt lat="59.820314" lon="17.8425612">
        <ele>44.8386</ele>
        <time>2012-04-09T12:29:56Z</time>
      </trkpt>
      <trkpt lat="59.8206318" lon="17.8427155">
        <ele>44.358</ele>
        <time>2012-04-09T12:30:01Z</time>
      </trkpt>
      <trkpt lat="59.8208123" lon="17.842846">
        <ele>45.3192</ele>
        <time>2012-04-09T12:30:04Z</time>
      </trkpt>
      <trkpt lat="59.820926" lon="17.8429019">
        <ele>45.3192</ele>
        <time>2012-04-09T12:30:06Z</time>
      </trkpt>
      <trkpt lat="59.8213961" lon="17.8429773">
        <ele>47.2418</ele>
        <time>2012-04-09T12:30:14Z</time>
      </trkpt>
      <trkpt lat="59.8217521" lon="17.8430329">
        <ele>49.1646</ele>
        <time>2012-04-09T12:30:21Z</time>
      </trkpt>
      <trkpt lat="59.8218857" lon="17.8430784">
        <ele>49.1646</ele>
        <time>2012-04-09T12:30:25Z</time>
      </trkpt>
      <trkpt lat="59.8218937" lon="17.8430713">
        <ele>49.1646</ele>
        <time>2012-04-09T12:30:33Z</time>
      </trkpt>
      <trkpt lat="59.8219076" lon="17.8430581">
        <ele>48.2034</ele>
        <time>2012-04-09T12:30:42Z</time>
      </trkpt>
      <trkpt lat="59.8220389" lon="17.8430589">
        <ele>47.7225</ele>
        <time>2012-04-09T12:30:47Z</time>
      </trkpt>
      <trkpt lat="59.8223099" lon="17.8431149">
        <ele>47.2418</ele>
        <time>2012-04-09T12:30:53Z</time>
      </trkpt>
      <trkpt lat="59.8227167" lon="17.8432235">
        <ele>45.3192</ele>
        <time>2012-04-09T12:31:00Z</time>
      </trkpt>
      <trkpt lat="59.8229955" lon="17.8431801">
        <ele>43.8773</ele>
        <time>2012-04-09T12:31:04Z</time>
      </trkpt>
      <trkpt lat="59.8233075" lon="17.8429256">
        <ele>41.474</ele>
        <time>2012-04-09T12:31:08Z</time>
      </trkpt>
      <trkpt lat="59.8234485" lon="17.8427026">
        <ele>40.9934</ele>
        <time>2012-04-09T12:31:10Z</time>
      </trkpt>
      <trkpt lat="59.8237802" lon="17.8424176">
        <ele>40.0321</ele>
        <time>2012-04-09T12:31:14Z</time>
      </trkpt>
      <trkpt lat="59.8239603" lon="17.842408">
        <ele>40.0321</ele>
        <time>2012-04-09T12:31:16Z</time>
      </trkpt>
      <trkpt lat="59.8245689" lon="17.8424492">
        <ele>40.0321</ele>
        <time>2012-04-09T12:31:23Z</time>
      </trkpt>
      <trkpt lat="59.8249675" lon="17.8424739">
        <ele>39.0707</ele>
        <time>2012-04-09T12:31:28Z</time>
      </trkpt>
      <trkpt lat="59.8254274" lon="17.8422558">
        <ele>36.1868</ele>
        <time>2012-04-09T12:31:33Z</time>
      </trkpt>
      <trkpt lat="59.8259165" lon="17.8417949">
        <ele>35.2255</ele>
        <time>2012-04-09T12:31:39Z</time>
      </trkpt>
      <trkpt lat="59.8264831" lon="17.8412085">
        <ele>33.3029</ele>
        <time>2012-04-09T12:31:46Z</time>
      </trkpt>
      <trkpt lat="59.8268095" lon="17.8411737">
        <ele>31.3801</ele>
        <time>2012-04-09T12:31:50Z</time>
      </trkpt>
      <trkpt lat="59.8268991" lon="17.8412332">
        <ele>30.4188</ele>
        <time>2012-04-09T12:31:51Z</time>
      </trkpt>
      <trkpt lat="59.8276911" lon="17.8418275">
        <ele>25.1317</ele>
        <time>2012-04-09T12:32:00Z</time>
      </trkpt>
      <trkpt lat="59.8278512" lon="17.8419235">
        <ele>24.651</ele>
        <time>2012-04-09T12:32:02Z</time>
      </trkpt>
      <trkpt lat="59.8281137" lon="17.84229">
        <ele>21.2864</ele>
        <time>2012-04-09T12:32:06Z</time>
      </trkpt>
      <trkpt lat="59.8284275" lon="17.842671">
        <ele>17.4412</ele>
        <time>2012-04-09T12:32:11Z</time>
      </trkpt>
      <trkpt lat="59.8286884" lon="17.842689">
        <ele>15.0377</ele>
        <time>2012-04-09T12:32:14Z</time>
      </trkpt>
      <trkpt lat="59.8291826" lon="17.8430271">
        <ele>10.7118</ele>
        <time>2012-04-09T12:32:19Z</time>
      </trkpt>
      <trkpt lat="59.8294118" lon="17.8434646">
        <ele>10.7118</ele>
        <time>2012-04-09T12:32:22Z</time>
      </trkpt>
      <trkpt lat="59.8298073" lon="17.8442529">
        <ele>9.2699</ele>
        <time>2012-04-09T12:32:28Z</time>
      </trkpt>
      <trkpt lat="59.8301158" lon="17.8450823">
        <ele>10.7118</ele>
        <time>2012-04-09T12:32:34Z</time>
      </trkpt>
      <trkpt lat="59.830333" lon="17.8455444">
        <ele>12.1538</ele>
        <time>2012-04-09T12:32:39Z</time>
      </trkpt>
      <trkpt lat="59.8304801" lon="17.8457448">
        <ele>12.6344</ele>
        <time>2012-04-09T12:32:42Z</time>
      </trkpt>
      <trkpt lat="59.8307218" lon="17.8459312">
        <ele>12.6344</ele>
        <time>2012-04-09T12:32:46Z</time>
      </trkpt>
      <trkpt lat="59.8310849" lon="17.8461814">
        <ele>14.557</ele>
        <time>2012-04-09T12:32:52Z</time>
      </trkpt>
      <trkpt lat="59.8313129" lon="17.846439">
        <ele>14.557</ele>
        <time>2012-04-09T12:32:57Z</time>
      </trkpt>
      <trkpt lat="59.8314099" lon="17.8465314">
        <ele>14.557</ele>
        <time>2012-04-09T12:32:59Z</time>
      </trkpt>
      <trkpt lat="59.8316312" lon="17.8466764">
        <ele>14.0764</ele>
        <time>2012-04-09T12:33:03Z</time>
      </trkpt>
      <trkpt lat="59.8319834" lon="17.8469045">
        <ele>15.0377</ele>
        <time>2012-04-09T12:33:09Z</time>
      </trkpt>
      <trkpt lat="59.8322429" lon="17.8474322">
        <ele>14.0764</ele>
        <time>2012-04-09T12:33:14Z</time>
      </trkpt>
      <trkpt lat="59.8322867" lon="17.84755">
        <ele>14.557</ele>
        <time>2012-04-09T12:33:15Z</time>
      </trkpt>
      <trkpt lat="59.8325489" lon="17.8484378">
        <ele>14.557</ele>
        <time>2012-04-09T12:33:23Z</time>
      </trkpt>
      <trkpt lat="59.8328379" lon="17.8490077">
        <ele>14.0764</ele>
        <time>2012-04-09T12:33:29Z</time>
      </trkpt>
      <trkpt lat="59.8331783" lon="17.8496231">
        <ele>11.6732</ele>
        <time>2012-04-09T12:33:35Z</time>
      </trkpt>
      <trkpt lat="59.8333063" lon="17.8498348">
        <ele>10.7118</ele>
        <time>2012-04-09T12:33:37Z</time>
      </trkpt>
      <trkpt lat="59.833558" lon="17.8504311">
        <ele>11.1925</ele>
        <time>2012-04-09T12:33:42Z</time>
      </trkpt>
      <trkpt lat="59.8337923" lon="17.8508646">
        <ele>12.6344</ele>
        <time>2012-04-09T12:33:47Z</time>
      </trkpt>
      <trkpt lat="59.8341034" lon="17.8512547">
        <ele>14.0764</ele>
        <time>2012-04-09T12:33:54Z</time>
      </trkpt>
      <trkpt lat="59.8343626" lon="17.8514869">
        <ele>14.557</ele>
        <time>2012-04-09T12:34:00Z</time>
      </trkpt>
      <trkpt lat="59.8344075" lon="17.8515206">
        <ele>14.557</ele>
        <time>2012-04-09T12:34:01Z</time>
      </trkpt>
      <trkpt lat="59.834675" lon="17.8518791">
        <ele>15.0377</ele>
        <time>2012-04-09T12:34:08Z</time>
      </trkpt>
      <trkpt lat="59.834863" lon="17.8522479">
        <ele>16.4797</ele>
        <time>2012-04-09T12:34:14Z</time>
      </trkpt>
      <trkpt lat="59.8350622" lon="17.8527202">
        <ele>18.8831</ele>
        <time>2012-04-09T12:34:20Z</time>
      </trkpt>
      <trkpt lat="59.8353565" lon="17.8533076">
        <ele>17.9218</ele>
        <time>2012-04-09T12:34:27Z</time>
      </trkpt>
      <trkpt lat="59.8354438" lon="17.8534548">
        <ele>17.4412</ele>
        <time>2012-04-09T12:34:29Z</time>
      </trkpt>
      <trkpt lat="59.8356421" lon="17.853752">
        <ele>16.9604</ele>
        <time>2012-04-09T12:34:33Z</time>
      </trkpt>
      <trkpt lat="59.8360654" lon="17.8543442">
        <ele>15.999</ele>
        <time>2012-04-09T12:34:41Z</time>
      </trkpt>
      <trkpt lat="59.8365821" lon="17.8549425">
        <ele>17.4412</ele>
        <time>2012-04-09T12:34:50Z</time>
      </trkpt>
      <trkpt lat="59.8368953" lon="17.8554703">
        <ele>16.4797</ele>
        <time>2012-04-09T12:34:56Z</time>
      </trkpt>
      <trkpt lat="59.8369942" lon="17.8556696">
        <ele>16.9604</ele>
        <time>2012-04-09T12:34:58Z</time>
      </trkpt>
      <trkpt lat="59.8371043" lon="17.8558516">
        <ele>16.9604</ele>
        <time>2012-04-09T12:35:00Z</time>
      </trkpt>
      <trkpt lat="59.8375451" lon="17.8562832">
        <ele>16.4797</ele>
        <time>2012-04-09T12:35:07Z</time>
      </trkpt>
      <trkpt lat="59.8377762" lon="17.8565664">
        <ele>15.999</ele>
        <time>2012-04-09T12:35:11Z</time>
      </trkpt>
      <trkpt lat="59.8381497" lon="17.8573658">
        <ele>15.0377</ele>
        <time>2012-04-09T12:35:18Z</time>
      </trkpt>
      <trkpt lat="59.838566" lon="17.8582945">
        <ele>15.0377</ele>
        <time>2012-04-09T12:35:26Z</time>
      </trkpt>
      <trkpt lat="59.8391126" lon="17.8592824">
        <ele>16.4797</ele>
        <time>2012-04-09T12:35:36Z</time>
      </trkpt>
      <trkpt lat="59.839551" lon="17.8598787">
        <ele>16.9604</ele>
        <time>2012-04-09T12:35:43Z</time>
      </trkpt>
      <trkpt lat="59.839955" lon="17.8602401">
        <ele>17.4412</ele>
        <time>2012-04-09T12:35:49Z</time>
      </trkpt>
      <trkpt lat="59.840498" lon="17.8605931">
        <ele>17.9218</ele>
        <time>2012-04-09T12:35:57Z</time>
      </trkpt>
      <trkpt lat="59.8410631" lon="17.860922">
        <ele>16.9604</ele>
        <time>2012-04-09T12:36:06Z</time>
      </trkpt>
      <trkpt lat="59.8415256" lon="17.8613278">
        <ele>16.9604</ele>
        <time>2012-04-09T12:36:13Z</time>
      </trkpt>
      <trkpt lat="59.8420161" lon="17.8618847">
        <ele>17.4412</ele>
        <time>2012-04-09T12:36:21Z</time>
      </trkpt>
      <trkpt lat="59.842386" lon="17.8621652">
        <ele>18.4023</ele>
        <time>2012-04-09T12:36:27Z</time>
      </trkpt>
      <trkpt lat="59.8427317" lon="17.8621665">
        <ele>18.4023</ele>
        <time>2012-04-09T12:36:32Z</time>
      </trkpt>
      <trkpt lat="59.8432864" lon="17.8620041">
        <ele>17.4412</ele>
        <time>2012-04-09T12:36:40Z</time>
      </trkpt>
      <trkpt lat="59.8438096" lon="17.8617935">
        <ele>16.9604</ele>
        <time>2012-04-09T12:36:47Z</time>
      </trkpt>
      <trkpt lat="59.8444688" lon="17.8614942">
        <ele>16.9604</ele>
        <time>2012-04-09T12:36:55Z</time>
      </trkpt>
      <trkpt lat="59.8450985" lon="17.8611985">
        <ele>17.4412</ele>
        <time>2012-04-09T12:37:03Z</time>
      </trkpt>
      <trkpt lat="59.8457225" lon="17.8609162">
        <ele>17.4412</ele>
        <time>2012-04-09T12:37:12Z</time>
      </trkpt>
      <trkpt lat="59.8462996" lon="17.8606513">
        <ele>15.5184</ele>
        <time>2012-04-09T12:37:20Z</time>
      </trkpt>
      <trkpt lat="59.8468803" lon="17.8603916">
        <ele>14.0764</ele>
        <time>2012-04-09T12:37:27Z</time>
      </trkpt>
      <trkpt lat="59.8477174" lon="17.8600051">
        <ele>12.1538</ele>
        <time>2012-04-09T12:37:36Z</time>
      </trkpt>
      <trkpt lat="59.8483183" lon="17.8597155">
        <ele>11.6732</ele>
        <time>2012-04-09T12:37:43Z</time>
      </trkpt>
      <trkpt lat="59.8488183" lon="17.8594819">
        <ele>11.6732</ele>
        <time>2012-04-09T12:37:50Z</time>
      </trkpt>
      <trkpt lat="59.8494" lon="17.8591636">
        <ele>12.1538</ele>
        <time>2012-04-09T12:37:59Z</time>
      </trkpt>
      <trkpt lat="59.8498346" lon="17.85887">
        <ele>12.6344</ele>
        <time>2012-04-09T12:38:06Z</time>
      </trkpt>
      <trkpt lat="59.8504251" lon="17.858422">
        <ele>13.1151</ele>
        <time>2012-04-09T12:38:16Z</time>
      </trkpt>
      <trkpt lat="59.8510033" lon="17.8581163">
        <ele>13.1151</ele>
        <time>2012-04-09T12:38:26Z</time>
      </trkpt>
      <trkpt lat="59.8514749" lon="17.857915">
        <ele>12.6344</ele>
        <time>2012-04-09T12:38:33Z</time>
      </trkpt>
      <trkpt lat="59.8520811" lon="17.8576718">
        <ele>12.6344</ele>
        <time>2012-04-09T12:38:42Z</time>
      </trkpt>
      <trkpt lat="59.8525173" lon="17.8576502">
        <ele>12.6344</ele>
        <time>2012-04-09T12:38:48Z</time>
      </trkpt>
      <trkpt lat="59.8528711" lon="17.8578304">
        <ele>13.5958</ele>
        <time>2012-04-09T12:38:53Z</time>
      </trkpt>
      <trkpt lat="59.85321" lon="17.8581609">
        <ele>14.557</ele>
        <time>2012-04-09T12:38:59Z</time>
      </trkpt>
      <trkpt lat="59.8536764" lon="17.858713">
        <ele>14.557</ele>
        <time>2012-04-09T12:39:07Z</time>
      </trkpt>
      <trkpt lat="59.8540055" lon="17.8591103">
        <ele>15.5184</ele>
        <time>2012-04-09T12:39:13Z</time>
      </trkpt>
      <trkpt lat="59.8543335" lon="17.8594522">
        <ele>15.999</ele>
        <time>2012-04-09T12:39:20Z</time>
      </trkpt>
      <trkpt lat="59.8544153" lon="17.8595087">
        <ele>15.999</ele>
        <time>2012-04-09T12:39:22Z</time>
      </trkpt>
      <trkpt lat="59.8547602" lon="17.8596222">
        <ele>14.557</ele>
        <time>2012-04-09T12:39:29Z</time>
      </trkpt>
      <trkpt lat="59.8549017" lon="17.8596486">
        <ele>14.0764</ele>
        <time>2012-04-09T12:39:32Z</time>
      </trkpt>
      <trkpt lat="59.8550274" lon="17.8595369">
        <ele>13.1151</ele>
        <time>2012-04-09T12:39:36Z</time>
      </trkpt>
      <trkpt lat="59.8550555" lon="17.8593507">
        <ele>12.6344</ele>
        <time>2012-04-09T12:39:38Z</time>
      </trkpt>
      <trkpt lat="59.8551394" lon="17.8582298">
        <ele>10.2312</ele>
        <time>2012-04-09T12:39:47Z</time>
      </trkpt>
      <trkpt lat="59.855232" lon="17.85711">
        <ele>9.2699</ele>
        <time>2012-04-09T12:39:56Z</time>
      </trkpt>
      <trkpt lat="59.8553193" lon="17.8560459">
        <ele>10.2312</ele>
        <time>2012-04-09T12:40:05Z</time>
      </trkpt>
      <trkpt lat="59.8553934" lon="17.8551055">
        <ele>12.1538</ele>
        <time>2012-04-09T12:40:14Z</time>
      </trkpt>
      <trkpt lat="59.8554503" lon="17.8542142">
        <ele>13.1151</ele>
        <time>2012-04-09T12:40:23Z</time>
      </trkpt>
      <trkpt lat="59.8554956" lon="17.8531399">
        <ele>13.5958</ele>
        <time>2012-04-09T12:40:34Z</time>
      </trkpt>
      <trkpt lat="59.8555258" lon="17.8520023">
        <ele>13.5958</ele>
        <time>2012-04-09T12:40:45Z</time>
      </trkpt>
      <trkpt lat="59.8555565" lon="17.8504985">
        <ele>13.5958</ele>
        <time>2012-04-09T12:40:59Z</time>
      </trkpt>
      <trkpt lat="59.8555839" lon="17.8493848">
        <ele>13.5958</ele>
        <time>2012-04-09T12:41:09Z</time>
      </trkpt>
      <trkpt lat="59.8556134" lon="17.8480452">
        <ele>14.557</ele>
        <time>2012-04-09T12:41:21Z</time>
      </trkpt>
      <trkpt lat="59.8556399" lon="17.8469035">
        <ele>15.0377</ele>
        <time>2012-04-09T12:41:31Z</time>
      </trkpt>
      <trkpt lat="59.8556734" lon="17.8453634">
        <ele>15.5184</ele>
        <time>2012-04-09T12:41:45Z</time>
      </trkpt>
      <trkpt lat="59.8556962" lon="17.8443192">
        <ele>15.0377</ele>
        <time>2012-04-09T12:41:54Z</time>
      </trkpt>
      <trkpt lat="59.8557304" lon="17.8427567">
        <ele>15.0377</ele>
        <time>2012-04-09T12:42:07Z</time>
      </trkpt>
      <trkpt lat="59.8557563" lon="17.8415566">
        <ele>14.557</ele>
        <time>2012-04-09T12:42:17Z</time>
      </trkpt>
      <trkpt lat="59.8557879" lon="17.8401592">
        <ele>14.557</ele>
        <time>2012-04-09T12:42:28Z</time>
      </trkpt>
      <trkpt lat="59.8558155" lon="17.8387535">
        <ele>15.999</ele>
        <time>2012-04-09T12:42:40Z</time>
      </trkpt>
      <trkpt lat="59.8558143" lon="17.8377995">
        <ele>17.4412</ele>
        <time>2012-04-09T12:42:49Z</time>
      </trkpt>
      <trkpt lat="59.8557739" lon="17.8367929">
        <ele>18.4023</ele>
        <time>2012-04-09T12:43:00Z</time>
      </trkpt>
      <trkpt lat="59.8557098" lon="17.8358584">
        <ele>19.3638</ele>
        <time>2012-04-09T12:43:11Z</time>
      </trkpt>
      <trkpt lat="59.8556194" lon="17.8347329">
        <ele>20.8057</ele>
        <time>2012-04-09T12:43:24Z</time>
      </trkpt>
      <trkpt lat="59.8555373" lon="17.833704">
        <ele>22.2476</ele>
        <time>2012-04-09T12:43:36Z</time>
      </trkpt>
      <trkpt lat="59.8554632" lon="17.8327457">
        <ele>23.6896</ele>
        <time>2012-04-09T12:43:47Z</time>
      </trkpt>
      <trkpt lat="59.8554094" lon="17.8320149">
        <ele>24.1703</ele>
        <time>2012-04-09T12:43:55Z</time>
      </trkpt>
      <trkpt lat="59.8553701" lon="17.8313409">
        <ele>24.1703</ele>
        <time>2012-04-09T12:44:03Z</time>
      </trkpt>
      <trkpt lat="59.8553276" lon="17.8308002">
        <ele>24.1703</ele>
        <time>2012-04-09T12:44:09Z</time>
      </trkpt>
      <trkpt lat="59.8552921" lon="17.8299112">
        <ele>24.1703</ele>
        <time>2012-04-09T12:44:17Z</time>
      </trkpt>
      <trkpt lat="59.8552799" lon="17.8287269">
        <ele>24.1703</ele>
        <time>2012-04-09T12:44:27Z</time>
      </trkpt>
      <trkpt lat="59.8553136" lon="17.8274637">
        <ele>24.1703</ele>
        <time>2012-04-09T12:44:38Z</time>
      </trkpt>
      <trkpt lat="59.8553715" lon="17.8264918">
        <ele>23.6896</ele>
        <time>2012-04-09T12:44:46Z</time>
      </trkpt>
      <trkpt lat="59.8554762" lon="17.8252595">
        <ele>23.6896</ele>
        <time>2012-04-09T12:44:56Z</time>
      </trkpt>
      <trkpt lat="59.8556243" lon="17.8240639">
        <ele>24.1703</ele>
        <time>2012-04-09T12:45:06Z</time>
      </trkpt>
      <trkpt lat="59.8558272" lon="17.8228633">
        <ele>24.1703</ele>
        <time>2012-04-09T12:45:16Z</time>
      </trkpt>
      <trkpt lat="59.8560029" lon="17.8219924">
        <ele>24.1703</ele>
        <time>2012-04-09T12:45:24Z</time>
      </trkpt>
      <trkpt lat="59.8561941" lon="17.8211573">
        <ele>24.651</ele>
        <time>2012-04-09T12:45:32Z</time>
      </trkpt>
      <trkpt lat="59.8564602" lon="17.8200514">
        <ele>24.651</ele>
        <time>2012-04-09T12:45:42Z</time>
      </trkpt>
      <trkpt lat="59.8566838" lon="17.8191211">
        <ele>25.1317</ele>
        <time>2012-04-09T12:45:51Z</time>
      </trkpt>
      <trkpt lat="59.8569561" lon="17.8179795">
        <ele>25.6123</ele>
        <time>2012-04-09T12:46:03Z</time>
      </trkpt>
      <trkpt lat="59.8572077" lon="17.8169385">
        <ele>26.5736</ele>
        <time>2012-04-09T12:46:14Z</time>
      </trkpt>
      <trkpt lat="59.8574684" lon="17.8158722">
        <ele>27.0543</ele>
        <time>2012-04-09T12:46:25Z</time>
      </trkpt>
      <trkpt lat="59.8576616" lon="17.8150258">
        <ele>25.6123</ele>
        <time>2012-04-09T12:46:34Z</time>
      </trkpt>
      <trkpt lat="59.8578165" lon="17.8149039">
        <ele>24.651</ele>
        <time>2012-04-09T12:46:38Z</time>
      </trkpt>
      <trkpt lat="59.8578629" lon="17.8149369">
        <ele>24.651</ele>
        <time>2012-04-09T12:46:39Z</time>
      </trkpt>
      <trkpt lat="59.8581245" lon="17.8151258">
        <ele>24.1703</ele>
        <time>2012-04-09T12:46:45Z</time>
      </trkpt>
      <trkpt lat="59.8583542" lon="17.8152828">
        <ele>23.6896</ele>
        <time>2012-04-09T12:46:51Z</time>
      </trkpt>
      <trkpt lat="59.8586278" lon="17.8154855">
        <ele>21.2864</ele>
        <time>2012-04-09T12:46:57Z</time>
      </trkpt>
      <trkpt lat="59.8590681" lon="17.8158762">
        <ele>21.2864</ele>
        <time>2012-04-09T12:47:05Z</time>
      </trkpt>
      <trkpt lat="59.8594985" lon="17.8162819">
        <ele>21.2864</ele>
        <time>2012-04-09T12:47:12Z</time>
      </trkpt>
      <trkpt lat="59.860065" lon="17.8168243">
        <ele>22.2476</ele>
        <time>2012-04-09T12:47:21Z</time>
      </trkpt>
      <trkpt lat="59.8606189" lon="17.8175593">
        <ele>24.1703</ele>
        <time>2012-04-09T12:47:30Z</time>
      </trkpt>
      <trkpt lat="59.8610826" lon="17.8181145">
        <ele>27.0543</ele>
        <time>2012-04-09T12:47:38Z</time>
      </trkpt>
      <trkpt lat="59.8614893" lon="17.8184911">
        <ele>28.4962</ele>
        <time>2012-04-09T12:47:45Z</time>
      </trkpt>
      <trkpt lat="59.8617856" lon="17.8186792">
        <ele>28.0155</ele>
        <time>2012-04-09T12:47:51Z</time>
      </trkpt>
      <trkpt lat="59.8621801" lon="17.8189559">
        <ele>25.6123</ele>
        <time>2012-04-09T12:47:57Z</time>
      </trkpt>
      <trkpt lat="59.8624248" lon="17.8194769">
        <ele>24.1703</ele>
        <time>2012-04-09T12:48:02Z</time>
      </trkpt>
      <trkpt lat="59.8626789" lon="17.8206658">
        <ele>21.2864</ele>
        <time>2012-04-09T12:48:11Z</time>
      </trkpt>
      <trkpt lat="59.8629011" lon="17.8214608">
        <ele>17.4412</ele>
        <time>2012-04-09T12:48:16Z</time>
      </trkpt>
      <trkpt lat="59.8632404" lon="17.822484">
        <ele>14.557</ele>
        <time>2012-04-09T12:48:22Z</time>
      </trkpt>
      <trkpt lat="59.8636669" lon="17.8235418">
        <ele>13.1151</ele>
        <time>2012-04-09T12:48:29Z</time>
      </trkpt>
      <trkpt lat="59.8639986" lon="17.82427">
        <ele>13.5958</ele>
        <time>2012-04-09T12:48:35Z</time>
      </trkpt>
      <trkpt lat="59.864304" lon="17.8249535">
        <ele>14.557</ele>
        <time>2012-04-09T12:48:42Z</time>
      </trkpt>
      <trkpt lat="59.8645697" lon="17.8255371">
        <ele>15.999</ele>
        <time>2012-04-09T12:48:49Z</time>
      </trkpt>
      <trkpt lat="59.8648044" lon="17.8260282">
        <ele>17.4412</ele>
        <time>2012-04-09T12:48:55Z</time>
      </trkpt>
      <trkpt lat="59.8649558" lon="17.8263304">
        <ele>18.4023</ele>
        <time>2012-04-09T12:48:59Z</time>
      </trkpt>
      <trkpt lat="59.8651315" lon="17.8265528">
        <ele>18.8831</ele>
        <time>2012-04-09T12:49:03Z</time>
      </trkpt>
      <trkpt lat="59.8655386" lon="17.8266938">
        <ele>18.4023</ele>
        <time>2012-04-09T12:49:10Z</time>
      </trkpt>
      <trkpt lat="59.866103" lon="17.8268125">
        <ele>18.4023</ele>
        <time>2012-04-09T12:49:19Z</time>
      </trkpt>
      <trkpt lat="59.8665444" lon="17.826755">
        <ele>17.9218</ele>
        <time>2012-04-09T12:49:26Z</time>
      </trkpt>
      <trkpt lat="59.867048" lon="17.8264914">
        <ele>17.9218</ele>
        <time>2012-04-09T12:49:34Z</time>
      </trkpt>
      <trkpt lat="59.8674898" lon="17.826177">
        <ele>18.4023</ele>
        <time>2012-04-09T12:49:42Z</time>
      </trkpt>
      <trkpt lat="59.8678776" lon="17.8258837">
        <ele>19.8444</ele>
        <time>2012-04-09T12:49:50Z</time>
      </trkpt>
      <trkpt lat="59.8681077" lon="17.8257144">
        <ele>20.325</ele>
        <time>2012-04-09T12:49:55Z</time>
      </trkpt>
      <trkpt lat="59.8684026" lon="17.8256906">
        <ele>20.325</ele>
        <time>2012-04-09T12:50:01Z</time>
      </trkpt>
      <trkpt lat="59.8686008" lon="17.8258613">
        <ele>20.325</ele>
        <time>2012-04-09T12:50:05Z</time>
      </trkpt>
      <trkpt lat="59.8689175" lon="17.8264007">
        <ele>18.8831</ele>
        <time>2012-04-09T12:50:12Z</time>
      </trkpt>
      <trkpt lat="59.8693099" lon="17.8270889">
        <ele>18.8831</ele>
        <time>2012-04-09T12:50:20Z</time>
      </trkpt>
      <trkpt lat="59.8696986" lon="17.8277771">
        <ele>18.4023</ele>
        <time>2012-04-09T12:50:28Z</time>
      </trkpt>
      <trkpt lat="59.8700691" lon="17.8282427">
        <ele>16.4797</ele>
        <time>2012-04-09T12:50:34Z</time>
      </trkpt>
      <trkpt lat="59.8707201" lon="17.8288736">
        <ele>15.5184</ele>
        <time>2012-04-09T12:50:43Z</time>
      </trkpt>
      <trkpt lat="59.8713319" lon="17.8294543">
        <ele>15.999</ele>
        <time>2012-04-09T12:50:52Z</time>
      </trkpt>
      <trkpt lat="59.8718899" lon="17.8299812">
        <ele>17.4412</ele>
        <time>2012-04-09T12:51:01Z</time>
      </trkpt>
      <trkpt lat="59.8722593" lon="17.8303511">
        <ele>19.3638</ele>
        <time>2012-04-09T12:51:08Z</time>
      </trkpt>
      <trkpt lat="59.8725827" lon="17.8306045">
        <ele>20.8057</ele>
        <time>2012-04-09T12:51:14Z</time>
      </trkpt>
      <trkpt lat="59.8729922" lon="17.8308026">
        <ele>22.2476</ele>
        <time>2012-04-09T12:51:22Z</time>
      </trkpt>
      <trkpt lat="59.873243" lon="17.831001">
        <ele>23.209</ele>
        <time>2012-04-09T12:51:28Z</time>
      </trkpt>
      <trkpt lat="59.8732831" lon="17.8310271">
        <ele>23.6896</ele>
        <time>2012-04-09T12:51:29Z</time>
      </trkpt>
      <trkpt lat="59.8733232" lon="17.8310545">
        <ele>23.6896</ele>
        <time>2012-04-09T12:51:30Z</time>
      </trkpt>
      <trkpt lat="59.8735128" lon="17.8312012">
        <ele>25.1317</ele>
        <time>2012-04-09T12:51:35Z</time>
      </trkpt>
      <trkpt lat="59.8737546" lon="17.8314875">
        <ele>27.0543</ele>
        <time>2012-04-09T12:51:43Z</time>
      </trkpt>
      <trkpt lat="59.8740438" lon="17.8318445">
        <ele>28.9769</ele>
        <time>2012-04-09T12:51:52Z</time>
      </trkpt>
      <trkpt lat="59.8743017" lon="17.832147">
        <ele>29.4575</ele>
        <time>2012-04-09T12:51:59Z</time>
      </trkpt>
      <trkpt lat="59.8743458" lon="17.8321862">
        <ele>29.4575</ele>
        <time>2012-04-09T12:52:00Z</time>
      </trkpt>
      <trkpt lat="59.8744969" lon="17.8323037">
        <ele>28.4962</ele>
        <time>2012-04-09T12:52:03Z</time>
      </trkpt>
      <trkpt lat="59.8749786" lon="17.8324515">
        <ele>27.5349</ele>
        <time>2012-04-09T12:52:11Z</time>
      </trkpt>
      <trkpt lat="59.8755081" lon="17.8326645">
        <ele>28.9769</ele>
        <time>2012-04-09T12:52:20Z</time>
      </trkpt>
      <trkpt lat="59.8759561" lon="17.8330911">
        <ele>28.9769</ele>
        <time>2012-04-09T12:52:28Z</time>
      </trkpt>
      <trkpt lat="59.876372" lon="17.8334093">
        <ele>29.9381</ele>
        <time>2012-04-09T12:52:35Z</time>
      </trkpt>
      <trkpt lat="59.8764757" lon="17.8334793">
        <ele>30.4188</ele>
        <time>2012-04-09T12:52:37Z</time>
      </trkpt>
      <trkpt lat="59.8768083" lon="17.8336873">
        <ele>29.9381</ele>
        <time>2012-04-09T12:52:43Z</time>
      </trkpt>
      <trkpt lat="59.8772159" lon="17.8340666">
        <ele>29.9381</ele>
        <time>2012-04-09T12:52:49Z</time>
      </trkpt>
      <trkpt lat="59.8776733" lon="17.8346494">
        <ele>30.4188</ele>
        <time>2012-04-09T12:52:57Z</time>
      </trkpt>
      <trkpt lat="59.8781474" lon="17.8351775">
        <ele>29.4575</ele>
        <time>2012-04-09T12:53:05Z</time>
      </trkpt>
      <trkpt lat="59.8786814" lon="17.8356238">
        <ele>28.4962</ele>
        <time>2012-04-09T12:53:13Z</time>
      </trkpt>
      <trkpt lat="59.8790706" lon="17.8358212">
        <ele>28.4962</ele>
        <time>2012-04-09T12:53:19Z</time>
      </trkpt>
      <trkpt lat="59.8794362" lon="17.8358708">
        <ele>28.0155</ele>
        <time>2012-04-09T12:53:24Z</time>
      </trkpt>
      <trkpt lat="59.8797781" lon="17.8358952">
        <ele>29.9381</ele>
        <time>2012-04-09T12:53:29Z</time>
      </trkpt>
      <trkpt lat="59.8801138" lon="17.8360688">
        <ele>29.9381</ele>
        <time>2012-04-09T12:53:35Z</time>
      </trkpt>
      <trkpt lat="59.8804914" lon="17.8364914">
        <ele>29.9381</ele>
        <time>2012-04-09T12:53:41Z</time>
      </trkpt>
      <trkpt lat="59.880826" lon="17.8369971">
        <ele>30.4188</ele>
        <time>2012-04-09T12:53:47Z</time>
      </trkpt>
      <trkpt lat="59.8812242" lon="17.8376434">
        <ele>29.4575</ele>
        <time>2012-04-09T12:53:55Z</time>
      </trkpt>
      <trkpt lat="59.8816567" lon="17.8382601">
        <ele>28.9769</ele>
        <time>2012-04-09T12:54:03Z</time>
      </trkpt>
      <trkpt lat="59.8819092" lon="17.83865">
        <ele>28.4962</ele>
        <time>2012-04-09T12:54:09Z</time>
      </trkpt>
      <trkpt lat="59.8821058" lon="17.8388779">
        <ele>28.0155</ele>
        <time>2012-04-09T12:54:14Z</time>
      </trkpt>
      <trkpt lat="59.8821937" lon="17.8389379">
        <ele>27.5349</ele>
        <time>2012-04-09T12:54:16Z</time>
      </trkpt>
      <trkpt lat="59.8825951" lon="17.8390719">
        <ele>29.4575</ele>
        <time>2012-04-09T12:54:25Z</time>
      </trkpt>
      <trkpt lat="59.8828198" lon="17.8391986">
        <ele>29.4575</ele>
        <time>2012-04-09T12:54:31Z</time>
      </trkpt>
      <trkpt lat="59.8830897" lon="17.8395012">
        <ele>28.0155</ele>
        <time>2012-04-09T12:54:37Z</time>
      </trkpt>
      <trkpt lat="59.8833943" lon="17.8399162">
        <ele>25.6123</ele>
        <time>2012-04-09T12:54:42Z</time>
      </trkpt>
      <trkpt lat="59.8841812" lon="17.8409485">
        <ele>23.209</ele>
        <time>2012-04-09T12:54:53Z</time>
      </trkpt>
      <trkpt lat="59.8846948" lon="17.8414229">
        <ele>23.6896</ele>
        <time>2012-04-09T12:55:00Z</time>
      </trkpt>
      <trkpt lat="59.8851018" lon="17.84153">
        <ele>25.1317</ele>
        <time>2012-04-09T12:55:05Z</time>
      </trkpt>
      <trkpt lat="59.8855197" lon="17.8414924">
        <ele>27.5349</ele>
        <time>2012-04-09T12:55:11Z</time>
      </trkpt>
      <trkpt lat="59.8860966" lon="17.8414019">
        <ele>29.9381</ele>
        <time>2012-04-09T12:55:19Z</time>
      </trkpt>
      <trkpt lat="59.88657" lon="17.841181">
        <ele>29.9381</ele>
        <time>2012-04-09T12:55:26Z</time>
      </trkpt>
      <trkpt lat="59.8867793" lon="17.8411089">
        <ele>30.4188</ele>
        <time>2012-04-09T12:55:29Z</time>
      </trkpt>
      <trkpt lat="59.8871163" lon="17.8412619">
        <ele>30.8995</ele>
        <time>2012-04-09T12:55:34Z</time>
      </trkpt>
      <trkpt lat="59.8873074" lon="17.8416114">
        <ele>31.3801</ele>
        <time>2012-04-09T12:55:38Z</time>
      </trkpt>
      <trkpt lat="59.887341" lon="17.8417072">
        <ele>31.3801</ele>
        <time>2012-04-09T12:55:39Z</time>
      </trkpt>
      <trkpt lat="59.8876161" lon="17.8423112">
        <ele>31.3801</ele>
        <time>2012-04-09T12:55:46Z</time>
      </trkpt>
      <trkpt lat="59.8880795" lon="17.8428769">
        <ele>30.8995</ele>
        <time>2012-04-09T12:55:55Z</time>
      </trkpt>
      <trkpt lat="59.888434" lon="17.8431234">
        <ele>31.8607</ele>
        <time>2012-04-09T12:56:02Z</time>
      </trkpt>
      <trkpt lat="59.8887459" lon="17.8431944">
        <ele>32.8223</ele>
        <time>2012-04-09T12:56:08Z</time>
      </trkpt>
      <trkpt lat="59.8891692" lon="17.8433811">
        <ele>32.3416</ele>
        <time>2012-04-09T12:56:16Z</time>
      </trkpt>
      <trkpt lat="59.8892763" lon="17.843448">
        <ele>31.8607</ele>
        <time>2012-04-09T12:56:18Z</time>
      </trkpt>
      <trkpt lat="59.8895691" lon="17.843379">
        <ele>31.8607</ele>
        <time>2012-04-09T12:56:23Z</time>
      </trkpt>
      <trkpt lat="59.8897237" lon="17.84305">
        <ele>31.8607</ele>
        <time>2012-04-09T12:56:27Z</time>
      </trkpt>
      <trkpt lat="59.8897741" lon="17.8427419">
        <ele>32.3416</ele>
        <time>2012-04-09T12:56:30Z</time>
      </trkpt>
      <trkpt lat="59.8898222" lon="17.8419933">
        <ele>33.7834</ele>
        <time>2012-04-09T12:56:38Z</time>
      </trkpt>
      <trkpt lat="59.8898996" lon="17.8413583">
        <ele>34.2642</ele>
        <time>2012-04-09T12:56:45Z</time>
      </trkpt>
      <trkpt lat="59.889921" lon="17.8412676">
        <ele>33.7834</ele>
        <time>2012-04-09T12:56:46Z</time>
      </trkpt>
      <trkpt lat="59.8901" lon="17.840909">
        <ele>32.8223</ele>
        <time>2012-04-09T12:56:51Z</time>
      </trkpt>
      <trkpt lat="59.8902668" lon="17.8409175">
        <ele>32.8223</ele>
        <time>2012-04-09T12:56:54Z</time>
      </trkpt>
      <trkpt lat="59.8904131" lon="17.8410857">
        <ele>33.3029</ele>
        <time>2012-04-09T12:56:57Z</time>
      </trkpt>
      <trkpt lat="59.8907946" lon="17.8416794">
        <ele>34.2642</ele>
        <time>2012-04-09T12:57:06Z</time>
      </trkpt>
      <trkpt lat="59.8910862" lon="17.8419933">
        <ele>34.7449</ele>
        <time>2012-04-09T12:57:12Z</time>
      </trkpt>
      <trkpt lat="59.8914209" lon="17.8422315">
        <ele>35.7061</ele>
        <time>2012-04-09T12:57:18Z</time>
      </trkpt>
      <trkpt lat="59.891886" lon="17.8423501">
        <ele>34.7449</ele>
        <time>2012-04-09T12:57:25Z</time>
      </trkpt>
      <trkpt lat="59.8923643" lon="17.8425373">
        <ele>34.2642</ele>
        <time>2012-04-09T12:57:32Z</time>
      </trkpt>
      <trkpt lat="59.8929431" lon="17.8428248">
        <ele>33.7834</ele>
        <time>2012-04-09T12:57:40Z</time>
      </trkpt>
      <trkpt lat="59.8935671" lon="17.8430656">
        <ele>33.3029</ele>
        <time>2012-04-09T12:57:48Z</time>
      </trkpt>
      <trkpt lat="59.8940514" lon="17.8431222">
        <ele>33.3029</ele>
        <time>2012-04-09T12:57:54Z</time>
      </trkpt>
      <trkpt lat="59.8942761" lon="17.8431263">
        <ele>33.7834</ele>
        <time>2012-04-09T12:57:57Z</time>
      </trkpt>
      <trkpt lat="59.8947703" lon="17.8432136">
        <ele>33.3029</ele>
        <time>2012-04-09T12:58:04Z</time>
      </trkpt>
      <trkpt lat="59.8951248" lon="17.8431761">
        <ele>33.7834</ele>
        <time>2012-04-09T12:58:09Z</time>
      </trkpt>
      <trkpt lat="59.8955168" lon="17.8429796">
        <ele>34.7449</ele>
        <time>2012-04-09T12:58:15Z</time>
      </trkpt>
      <trkpt lat="59.896011" lon="17.8427967">
        <ele>36.1868</ele>
        <time>2012-04-09T12:58:23Z</time>
      </trkpt>
      <trkpt lat="59.896392" lon="17.8428765">
        <ele>35.2255</ele>
        <time>2012-04-09T12:58:30Z</time>
      </trkpt>
      <trkpt lat="59.8966213" lon="17.8429458">
        <ele>35.2255</ele>
        <time>2012-04-09T12:58:35Z</time>
      </trkpt>
      <trkpt lat="59.8966574" lon="17.8429537">
        <ele>34.7449</ele>
        <time>2012-04-09T12:58:36Z</time>
      </trkpt>
      <trkpt lat="59.8967544" lon="17.8429453">
        <ele>34.2642</ele>
        <time>2012-04-09T12:58:39Z</time>
      </trkpt>
      <trkpt lat="59.897037" lon="17.8427684">
        <ele>31.8607</ele>
        <time>2012-04-09T12:58:48Z</time>
      </trkpt>
      <trkpt lat="59.8972043" lon="17.8426373">
        <ele>28.9769</ele>
        <time>2012-04-09T12:58:54Z</time>
      </trkpt>
      <trkpt lat="59.8973833" lon="17.8425114">
        <ele>29.9381</ele>
        <time>2012-04-09T12:58:59Z</time>
      </trkpt>
      <trkpt lat="59.8976174" lon="17.8423943">
        <ele>30.8995</ele>
        <time>2012-04-09T12:59:04Z</time>
      </trkpt>
      <trkpt lat="59.8977164" lon="17.8423725">
        <ele>32.8223</ele>
        <time>2012-04-09T12:59:06Z</time>
      </trkpt>
      <trkpt lat="59.8980499" lon="17.8424">
        <ele>37.6287</ele>
        <time>2012-04-09T12:59:13Z</time>
      </trkpt>
      <trkpt lat="59.8983057" lon="17.8423771">
        <ele>39.5513</ele>
        <time>2012-04-09T12:59:19Z</time>
      </trkpt>
      <trkpt lat="59.8986374" lon="17.8422471">
        <ele>40.9934</ele>
        <time>2012-04-09T12:59:27Z</time>
      </trkpt>
      <trkpt lat="59.898945" lon="17.8420646">
        <ele>42.916</ele>
        <time>2012-04-09T12:59:35Z</time>
      </trkpt>
      <trkpt lat="59.8992015" lon="17.841865">
        <ele>43.8773</ele>
        <time>2012-04-09T12:59:42Z</time>
      </trkpt>
      <trkpt lat="59.8994683" lon="17.8415845">
        <ele>42.916</ele>
        <time>2012-04-09T12:59:48Z</time>
      </trkpt>
      <trkpt lat="59.8998742" lon="17.8414349">
        <ele>39.0707</ele>
        <time>2012-04-09T12:59:54Z</time>
      </trkpt>
      <trkpt lat="59.9004591" lon="17.8414164">
        <ele>34.7449</ele>
        <time>2012-04-09T13:00:01Z</time>
      </trkpt>
      <trkpt lat="59.9012594" lon="17.8415261">
        <ele>31.8607</ele>
        <time>2012-04-09T13:00:10Z</time>
      </trkpt>
      <trkpt lat="59.9017972" lon="17.8416209">
        <ele>32.3416</ele>
        <time>2012-04-09T13:00:17Z</time>
      </trkpt>
      <trkpt lat="59.9022006" lon="17.8416655">
        <ele>31.8607</ele>
        <time>2012-04-09T13:00:23Z</time>
      </trkpt>
      <trkpt lat="59.9025866" lon="17.841529">
        <ele>31.3801</ele>
        <time>2012-04-09T13:00:28Z</time>
      </trkpt>
      <trkpt lat="59.9030693" lon="17.841339">
        <ele>29.9381</ele>
        <time>2012-04-09T13:00:34Z</time>
      </trkpt>
      <trkpt lat="59.9033953" lon="17.8415053">
        <ele>29.4575</ele>
        <time>2012-04-09T13:00:39Z</time>
      </trkpt>
      <trkpt lat="59.9034511" lon="17.8415805">
        <ele>29.4575</ele>
        <time>2012-04-09T13:00:40Z</time>
      </trkpt>
      <trkpt lat="59.9036916" lon="17.8419095">
        <ele>28.0155</ele>
        <time>2012-04-09T13:00:44Z</time>
      </trkpt>
      <trkpt lat="59.9040836" lon="17.8420787">
        <ele>25.1317</ele>
        <time>2012-04-09T13:00:49Z</time>
      </trkpt>
      <trkpt lat="59.9043375" lon="17.8419677">
        <ele>24.651</ele>
        <time>2012-04-09T13:00:52Z</time>
      </trkpt>
      <trkpt lat="59.9049183" lon="17.841569">
        <ele>24.651</ele>
        <time>2012-04-09T13:01:00Z</time>
      </trkpt>
      <trkpt lat="59.9053357" lon="17.8414109">
        <ele>21.2864</ele>
        <time>2012-04-09T13:01:05Z</time>
      </trkpt>
      <trkpt lat="59.9056979" lon="17.8412827">
        <ele>18.8831</ele>
        <time>2012-04-09T13:01:09Z</time>
      </trkpt>
      <trkpt lat="59.906078" lon="17.840916">
        <ele>17.9218</ele>
        <time>2012-04-09T13:01:14Z</time>
      </trkpt>
      <trkpt lat="59.9062998" lon="17.8405527">
        <ele>17.9218</ele>
        <time>2012-04-09T13:01:18Z</time>
      </trkpt>
      <trkpt lat="59.9066001" lon="17.8402238">
        <ele>19.3638</ele>
        <time>2012-04-09T13:01:24Z</time>
      </trkpt>
      <trkpt lat="59.9068907" lon="17.8399928">
        <ele>20.325</ele>
        <time>2012-04-09T13:01:31Z</time>
      </trkpt>
      <trkpt lat="59.9071783" lon="17.8397742">
        <ele>23.6896</ele>
        <time>2012-04-09T13:01:39Z</time>
      </trkpt>
      <trkpt lat="59.9074026" lon="17.8395898">
        <ele>26.0929</ele>
        <time>2012-04-09T13:01:46Z</time>
      </trkpt>
      <trkpt lat="59.9075875" lon="17.8393985">
        <ele>27.5349</ele>
        <time>2012-04-09T13:01:53Z</time>
      </trkpt>
      <trkpt lat="59.9077895" lon="17.8391614">
        <ele>27.0543</ele>
        <time>2012-04-09T13:01:59Z</time>
      </trkpt>
      <trkpt lat="59.9080921" lon="17.8388379">
        <ele>25.1317</ele>
        <time>2012-04-09T13:02:05Z</time>
      </trkpt>
      <trkpt lat="59.9084902" lon="17.8387553">
        <ele>23.6896</ele>
        <time>2012-04-09T13:02:11Z</time>
      </trkpt>
      <trkpt lat="59.9087886" lon="17.8390152">
        <ele>21.2864</ele>
        <time>2012-04-09T13:02:15Z</time>
      </trkpt>
      <trkpt lat="59.9089921" lon="17.8394148">
        <ele>19.3638</ele>
        <time>2012-04-09T13:02:18Z</time>
      </trkpt>
      <trkpt lat="59.9090512" lon="17.8395747">
        <ele>18.4023</ele>
        <time>2012-04-09T13:02:19Z</time>
      </trkpt>
      <trkpt lat="59.9095143" lon="17.8408641">
        <ele>15.0377</ele>
        <time>2012-04-09T13:02:27Z</time>
      </trkpt>
      <trkpt lat="59.9095552" lon="17.8410162">
        <ele>15.0377</ele>
        <time>2012-04-09T13:02:28Z</time>
      </trkpt>
      <trkpt lat="59.9096268" lon="17.8417431">
        <ele>15.999</ele>
        <time>2012-04-09T13:02:33Z</time>
      </trkpt>
      <trkpt lat="59.9095741" lon="17.8425515">
        <ele>17.9218</ele>
        <time>2012-04-09T13:02:40Z</time>
      </trkpt>
      <trkpt lat="59.9095699" lon="17.8426619">
        <ele>17.9218</ele>
        <time>2012-04-09T13:02:41Z</time>
      </trkpt>
      <trkpt lat="59.9096522" lon="17.8430768">
        <ele>17.9218</ele>
        <time>2012-04-09T13:02:45Z</time>
      </trkpt>
      <trkpt lat="59.9096962" lon="17.8431422">
        <ele>18.4023</ele>
        <time>2012-04-09T13:02:46Z</time>
      </trkpt>
      <trkpt lat="59.9097872" lon="17.8432546">
        <ele>18.4023</ele>
        <time>2012-04-09T13:02:48Z</time>
      </trkpt>
      <trkpt lat="59.9101594" lon="17.8436224">
        <ele>16.9604</ele>
        <time>2012-04-09T13:02:55Z</time>
      </trkpt>
      <trkpt lat="59.9104857" lon="17.8438876">
        <ele>15.0377</ele>
        <time>2012-04-09T13:03:00Z</time>
      </trkpt>
      <trkpt lat="59.9108657" lon="17.844202">
        <ele>12.6344</ele>
        <time>2012-04-09T13:03:05Z</time>
      </trkpt>
      <trkpt lat="59.911202" lon="17.8443353">
        <ele>11.1925</ele>
        <time>2012-04-09T13:03:09Z</time>
      </trkpt>
      <trkpt lat="59.9117367" lon="17.844295">
        <ele>11.1925</ele>
        <time>2012-04-09T13:03:16Z</time>
      </trkpt>
      <trkpt lat="59.9120522" lon="17.844137">
        <ele>11.6732</ele>
        <time>2012-04-09T13:03:21Z</time>
      </trkpt>
      <trkpt lat="59.9123895" lon="17.8437927">
        <ele>12.6344</ele>
        <time>2012-04-09T13:03:28Z</time>
      </trkpt>
      <trkpt lat="59.9127204" lon="17.8434892">
        <ele>12.1538</ele>
        <time>2012-04-09T13:03:35Z</time>
      </trkpt>
      <trkpt lat="59.9130846" lon="17.8433427">
        <ele>12.6344</ele>
        <time>2012-04-09T13:03:41Z</time>
      </trkpt>
      <trkpt lat="59.9136417" lon="17.8431298">
        <ele>13.5958</ele>
        <time>2012-04-09T13:03:49Z</time>
      </trkpt>
      <trkpt lat="59.9140406" lon="17.8427793">
        <ele>14.0764</ele>
        <time>2012-04-09T13:03:55Z</time>
      </trkpt>
      <trkpt lat="59.9144838" lon="17.8422714">
        <ele>15.0377</ele>
        <time>2012-04-09T13:04:02Z</time>
      </trkpt>
      <trkpt lat="59.9148054" lon="17.8419755">
        <ele>15.5184</ele>
        <time>2012-04-09T13:04:07Z</time>
      </trkpt>
      <trkpt lat="59.9152079" lon="17.8418037">
        <ele>17.4412</ele>
        <time>2012-04-09T13:04:13Z</time>
      </trkpt>
      <trkpt lat="59.9152747" lon="17.8417978">
        <ele>17.9218</ele>
        <time>2012-04-09T13:04:14Z</time>
      </trkpt>
      <trkpt lat="59.9158977" lon="17.841866">
        <ele>19.8444</ele>
        <time>2012-04-09T13:04:24Z</time>
      </trkpt>
      <trkpt lat="59.9159541" lon="17.8418672">
        <ele>19.8444</ele>
        <time>2012-04-09T13:04:25Z</time>
      </trkpt>
      <trkpt lat="59.9162157" lon="17.8420372">
        <ele>20.325</ele>
        <time>2012-04-09T13:04:30Z</time>
      </trkpt>
      <trkpt lat="59.9162605" lon="17.8420985">
        <ele>20.325</ele>
        <time>2012-04-09T13:04:31Z</time>
      </trkpt>
      <trkpt lat="59.9165388" lon="17.8425558">
        <ele>20.325</ele>
        <time>2012-04-09T13:04:38Z</time>
      </trkpt>
      <trkpt lat="59.91682" lon="17.8429428">
        <ele>20.325</ele>
        <time>2012-04-09T13:04:45Z</time>
      </trkpt>
      <trkpt lat="59.917053" lon="17.8429982">
        <ele>20.8057</ele>
        <time>2012-04-09T13:04:50Z</time>
      </trkpt>
      <trkpt lat="59.9171036" lon="17.8429676">
        <ele>20.8057</ele>
        <time>2012-04-09T13:04:51Z</time>
      </trkpt>
      <trkpt lat="59.9176146" lon="17.8425852">
        <ele>22.7283</ele>
        <time>2012-04-09T13:05:01Z</time>
      </trkpt>
      <trkpt lat="59.9179576" lon="17.8422338">
        <ele>21.767</ele>
        <time>2012-04-09T13:05:08Z</time>
      </trkpt>
      <trkpt lat="59.9184035" lon="17.8417773">
        <ele>20.325</ele>
        <time>2012-04-09T13:05:16Z</time>
      </trkpt>
      <trkpt lat="59.9188604" lon="17.8414027">
        <ele>20.8057</ele>
        <time>2012-04-09T13:05:24Z</time>
      </trkpt>
      <trkpt lat="59.9195271" lon="17.8409576">
        <ele>23.209</ele>
        <time>2012-04-09T13:05:35Z</time>
      </trkpt>
      <trkpt lat="59.9199446" lon="17.8407987">
        <ele>24.1703</ele>
        <time>2012-04-09T13:05:42Z</time>
      </trkpt>
      <trkpt lat="59.9204885" lon="17.8407874">
        <ele>24.651</ele>
        <time>2012-04-09T13:05:51Z</time>
      </trkpt>
      <trkpt lat="59.9209752" lon="17.8407562">
        <ele>23.209</ele>
        <time>2012-04-09T13:05:58Z</time>
      </trkpt>
      <trkpt lat="59.921485" lon="17.8407158">
        <ele>22.7283</ele>
        <time>2012-04-09T13:06:05Z</time>
      </trkpt>
      <trkpt lat="59.9221839" lon="17.8405389">
        <ele>23.209</ele>
        <time>2012-04-09T13:06:15Z</time>
      </trkpt>
      <trkpt lat="59.9227578" lon="17.840293">
        <ele>24.1703</ele>
        <time>2012-04-09T13:06:24Z</time>
      </trkpt>
      <trkpt lat="59.9234729" lon="17.8398954">
        <ele>23.6896</ele>
        <time>2012-04-09T13:06:35Z</time>
      </trkpt>
      <trkpt lat="59.9239819" lon="17.8396621">
        <ele>23.6896</ele>
        <time>2012-04-09T13:06:43Z</time>
      </trkpt>
      <trkpt lat="59.9246246" lon="17.839474">
        <ele>23.6896</ele>
        <time>2012-04-09T13:06:53Z</time>
      </trkpt>
      <trkpt lat="59.9253395" lon="17.8394267">
        <ele>24.1703</ele>
        <time>2012-04-09T13:07:04Z</time>
      </trkpt>
      <trkpt lat="59.9256152" lon="17.8394541">
        <ele>23.6896</ele>
        <time>2012-04-09T13:07:08Z</time>
      </trkpt>
      <trkpt lat="59.9259239" lon="17.8392685">
        <ele>23.6896</ele>
        <time>2012-04-09T13:07:13Z</time>
      </trkpt>
      <trkpt lat="59.9260235" lon="17.8391096">
        <ele>23.6896</ele>
        <time>2012-04-09T13:07:15Z</time>
      </trkpt>
      <trkpt lat="59.9263902" lon="17.838294">
        <ele>24.651</ele>
        <time>2012-04-09T13:07:24Z</time>
      </trkpt>
      <trkpt lat="59.9265827" lon="17.8379601">
        <ele>25.6123</ele>
        <time>2012-04-09T13:07:29Z</time>
      </trkpt>
      <trkpt lat="59.9267911" lon="17.837781">
        <ele>26.5736</ele>
        <time>2012-04-09T13:07:34Z</time>
      </trkpt>
      <trkpt lat="59.9269211" lon="17.8376757">
        <ele>27.5349</ele>
        <time>2012-04-09T13:07:37Z</time>
      </trkpt>
      <trkpt lat="59.9272159" lon="17.8373152">
        <ele>28.0155</ele>
        <time>2012-04-09T13:07:44Z</time>
      </trkpt>
      <trkpt lat="59.9275592" lon="17.8368641">
        <ele>28.0155</ele>
        <time>2012-04-09T13:07:52Z</time>
      </trkpt>
      <trkpt lat="59.9278647" lon="17.8363853">
        <ele>27.5349</ele>
        <time>2012-04-09T13:07:59Z</time>
      </trkpt>
      <trkpt lat="59.9282549" lon="17.8357876">
        <ele>27.5349</ele>
        <time>2012-04-09T13:08:07Z</time>
      </trkpt>
      <trkpt lat="59.9287503" lon="17.8350529">
        <ele>28.0155</ele>
        <time>2012-04-09T13:08:17Z</time>
      </trkpt>
      <trkpt lat="59.9290486" lon="17.8346693">
        <ele>28.0155</ele>
        <time>2012-04-09T13:08:23Z</time>
      </trkpt>
      <trkpt lat="59.9291978" lon="17.8344926">
        <ele>28.4962</ele>
        <time>2012-04-09T13:08:26Z</time>
      </trkpt>
      <trkpt lat="59.9295693" lon="17.833944">
        <ele>29.9381</ele>
        <time>2012-04-09T13:08:34Z</time>
      </trkpt>
      <trkpt lat="59.9299184" lon="17.8333554">
        <ele>28.9769</ele>
        <time>2012-04-09T13:08:41Z</time>
      </trkpt>
      <trkpt lat="59.9304876" lon="17.8324783">
        <ele>28.9769</ele>
        <time>2012-04-09T13:08:52Z</time>
      </trkpt>
      <trkpt lat="59.9310402" lon="17.8316351">
        <ele>28.0155</ele>
        <time>2012-04-09T13:09:03Z</time>
      </trkpt>
      <trkpt lat="59.9314092" lon="17.830917">
        <ele>27.5349</ele>
        <time>2012-04-09T13:09:11Z</time>
      </trkpt>
      <trkpt lat="59.9316418" lon="17.8302623">
        <ele>28.0155</ele>
        <time>2012-04-09T13:09:18Z</time>
      </trkpt>
      <trkpt lat="59.9318268" lon="17.8295956">
        <ele>27.0543</ele>
        <time>2012-04-09T13:09:24Z</time>
      </trkpt>
      <trkpt lat="59.9320505" lon="17.828751">
        <ele>25.1317</ele>
        <time>2012-04-09T13:09:31Z</time>
      </trkpt>
      <trkpt lat="59.9323012" lon="17.8281081">
        <ele>25.1317</ele>
        <time>2012-04-09T13:09:37Z</time>
      </trkpt>
      <trkpt lat="59.9326532" lon="17.8274572">
        <ele>25.1317</ele>
        <time>2012-04-09T13:09:44Z</time>
      </trkpt>
      <trkpt lat="59.9331253" lon="17.8266635">
        <ele>25.1317</ele>
        <time>2012-04-09T13:09:53Z</time>
      </trkpt>
      <trkpt lat="59.9335269" lon="17.8262152">
        <ele>26.0929</ele>
        <time>2012-04-09T13:10:00Z</time>
      </trkpt>
      <trkpt lat="59.9339961" lon="17.8259257">
        <ele>26.0929</ele>
        <time>2012-04-09T13:10:07Z</time>
      </trkpt>
      <trkpt lat="59.9344529" lon="17.8257112">
        <ele>25.6123</ele>
        <time>2012-04-09T13:10:13Z</time>
      </trkpt>
      <trkpt lat="59.935054" lon="17.8254479">
        <ele>25.1317</ele>
        <time>2012-04-09T13:10:21Z</time>
      </trkpt>
      <trkpt lat="59.9358566" lon="17.8251042">
        <ele>25.1317</ele>
        <time>2012-04-09T13:10:32Z</time>
      </trkpt>
      <trkpt lat="59.9365155" lon="17.8248131">
        <ele>26.0929</ele>
        <time>2012-04-09T13:10:42Z</time>
      </trkpt>
      <trkpt lat="59.9365753" lon="17.8247684">
        <ele>26.0929</ele>
        <time>2012-04-09T13:10:43Z</time>
      </trkpt>
      <trkpt lat="59.9369429" lon="17.8242384">
        <ele>26.0929</ele>
        <time>2012-04-09T13:10:50Z</time>
      </trkpt>
      <trkpt lat="59.9372207" lon="17.8235416">
        <ele>26.0929</ele>
        <time>2012-04-09T13:10:57Z</time>
      </trkpt>
      <trkpt lat="59.9375725" lon="17.8225798">
        <ele>26.5736</ele>
        <time>2012-04-09T13:11:07Z</time>
      </trkpt>
      <trkpt lat="59.9378046" lon="17.8219255">
        <ele>27.0543</ele>
        <time>2012-04-09T13:11:15Z</time>
      </trkpt>
      <trkpt lat="59.9380195" lon="17.821374">
        <ele>27.0543</ele>
        <time>2012-04-09T13:11:22Z</time>
      </trkpt>
      <trkpt lat="59.9384381" lon="17.8204581">
        <ele>28.9769</ele>
        <time>2012-04-09T13:11:35Z</time>
      </trkpt>
      <trkpt lat="59.9387031" lon="17.8198904">
        <ele>29.9381</ele>
        <time>2012-04-09T13:11:44Z</time>
      </trkpt>
      <trkpt lat="59.9389733" lon="17.8193038">
        <ele>29.9381</ele>
        <time>2012-04-09T13:11:53Z</time>
      </trkpt>
      <trkpt lat="59.9392579" lon="17.8187186">
        <ele>29.4575</ele>
        <time>2012-04-09T13:12:01Z</time>
      </trkpt>
      <trkpt lat="59.9394065" lon="17.818409">
        <ele>29.4575</ele>
        <time>2012-04-09T13:12:06Z</time>
      </trkpt>
      <trkpt lat="59.9395061" lon="17.8181747">
        <ele>29.9381</ele>
        <time>2012-04-09T13:12:10Z</time>
      </trkpt>
      <trkpt lat="59.9396424" lon="17.8181052">
        <ele>29.9381</ele>
        <time>2012-04-09T13:12:14Z</time>
      </trkpt>
      <trkpt lat="59.9396806" lon="17.8181405">
        <ele>29.9381</ele>
        <time>2012-04-09T13:12:15Z</time>
      </trkpt>
      <trkpt lat="59.9400453" lon="17.8186067">
        <ele>28.4962</ele>
        <time>2012-04-09T13:12:23Z</time>
      </trkpt>
      <trkpt lat="59.9403718" lon="17.8190147">
        <ele>27.0543</ele>
        <time>2012-04-09T13:12:29Z</time>
      </trkpt>
      <trkpt lat="59.9409583" lon="17.8197737">
        <ele>24.1703</ele>
        <time>2012-04-09T13:12:39Z</time>
      </trkpt>
      <trkpt lat="59.9415301" lon="17.8204934">
        <ele>22.2476</ele>
        <time>2012-04-09T13:12:47Z</time>
      </trkpt>
      <trkpt lat="59.941993" lon="17.8210795">
        <ele>22.2476</ele>
        <time>2012-04-09T13:12:54Z</time>
      </trkpt>
      <trkpt lat="59.942562" lon="17.8217996">
        <ele>23.209</ele>
        <time>2012-04-09T13:13:04Z</time>
      </trkpt>
      <trkpt lat="59.9430219" lon="17.8223764">
        <ele>24.651</ele>
        <time>2012-04-09T13:13:13Z</time>
      </trkpt>
      <trkpt lat="59.9436166" lon="17.8231207">
        <ele>26.0929</ele>
        <time>2012-04-09T13:13:26Z</time>
      </trkpt>
      <trkpt lat="59.944166" lon="17.8238056">
        <ele>27.5349</ele>
        <time>2012-04-09T13:13:39Z</time>
      </trkpt>
      <trkpt lat="59.9446288" lon="17.8243085">
        <ele>28.0155</ele>
        <time>2012-04-09T13:13:49Z</time>
      </trkpt>
      <trkpt lat="59.9451362" lon="17.824826">
        <ele>27.5349</ele>
        <time>2012-04-09T13:13:58Z</time>
      </trkpt>
      <trkpt lat="59.9457756" lon="17.8254945">
        <ele>25.6123</ele>
        <time>2012-04-09T13:14:09Z</time>
      </trkpt>
      <trkpt lat="59.946393" lon="17.8261381">
        <ele>24.651</ele>
        <time>2012-04-09T13:14:18Z</time>
      </trkpt>
      <trkpt lat="59.9470671" lon="17.8268339">
        <ele>23.6896</ele>
        <time>2012-04-09T13:14:28Z</time>
      </trkpt>
      <trkpt lat="59.9478416" lon="17.8276412">
        <ele>23.6896</ele>
        <time>2012-04-09T13:14:40Z</time>
      </trkpt>
      <trkpt lat="59.9487719" lon="17.8285997">
        <ele>23.209</ele>
        <time>2012-04-09T13:14:54Z</time>
      </trkpt>
      <trkpt lat="59.9489039" lon="17.8287375">
        <ele>23.209</ele>
        <time>2012-04-09T13:14:56Z</time>
      </trkpt>
      <trkpt lat="59.9491049" lon="17.8288685">
        <ele>23.209</ele>
        <time>2012-04-09T13:14:59Z</time>
      </trkpt>
      <trkpt lat="59.9493422" lon="17.8290508">
        <ele>23.209</ele>
        <time>2012-04-09T13:15:03Z</time>
      </trkpt>
      <trkpt lat="59.9496902" lon="17.8295632">
        <ele>23.6896</ele>
        <time>2012-04-09T13:15:10Z</time>
      </trkpt>
      <trkpt lat="59.9497725" lon="17.8296968">
        <ele>23.6896</ele>
        <time>2012-04-09T13:15:12Z</time>
      </trkpt>
      <trkpt lat="59.94994" lon="17.8296982">
        <ele>23.6896</ele>
        <time>2012-04-09T13:15:16Z</time>
      </trkpt>
      <trkpt lat="59.9500341" lon="17.8293641">
        <ele>22.7283</ele>
        <time>2012-04-09T13:15:20Z</time>
      </trkpt>
      <trkpt lat="59.9500575" lon="17.8290478">
        <ele>21.767</ele>
        <time>2012-04-09T13:15:23Z</time>
      </trkpt>
      <trkpt lat="59.9500497" lon="17.8280441">
        <ele>20.8057</ele>
        <time>2012-04-09T13:15:32Z</time>
      </trkpt>
      <trkpt lat="59.9500518" lon="17.8271554">
        <ele>20.8057</ele>
        <time>2012-04-09T13:15:40Z</time>
      </trkpt>
      <trkpt lat="59.9501012" lon="17.8264383">
        <ele>20.8057</ele>
        <time>2012-04-09T13:15:47Z</time>
      </trkpt>
      <trkpt lat="59.9502174" lon="17.8258181">
        <ele>21.2864</ele>
        <time>2012-04-09T13:15:54Z</time>
      </trkpt>
      <trkpt lat="59.950419" lon="17.8249206">
        <ele>21.767</ele>
        <time>2012-04-09T13:16:05Z</time>
      </trkpt>
      <trkpt lat="59.950613" lon="17.8240394">
        <ele>23.209</ele>
        <time>2012-04-09T13:16:16Z</time>
      </trkpt>
      <trkpt lat="59.9507299" lon="17.8232206">
        <ele>23.6896</ele>
        <time>2012-04-09T13:16:25Z</time>
      </trkpt>
      <trkpt lat="59.9508128" lon="17.8224279">
        <ele>24.1703</ele>
        <time>2012-04-09T13:16:33Z</time>
      </trkpt>
      <trkpt lat="59.950904" lon="17.8215795">
        <ele>25.6123</ele>
        <time>2012-04-09T13:16:42Z</time>
      </trkpt>
      <trkpt lat="59.9509776" lon="17.8206872">
        <ele>26.5736</ele>
        <time>2012-04-09T13:16:52Z</time>
      </trkpt>
      <trkpt lat="59.9510184" lon="17.8198071">
        <ele>27.5349</ele>
        <time>2012-04-09T13:17:02Z</time>
      </trkpt>
      <trkpt lat="59.9510335" lon="17.8190191">
        <ele>28.0155</ele>
        <time>2012-04-09T13:17:11Z</time>
      </trkpt>
      <trkpt lat="59.9511027" lon="17.8182544">
        <ele>28.4962</ele>
        <time>2012-04-09T13:17:20Z</time>
      </trkpt>
      <trkpt lat="59.9512023" lon="17.8172932">
        <ele>28.4962</ele>
        <time>2012-04-09T13:17:30Z</time>
      </trkpt>
      <trkpt lat="59.9513147" lon="17.8161445">
        <ele>28.4962</ele>
        <time>2012-04-09T13:17:41Z</time>
      </trkpt>
      <trkpt lat="59.9513623" lon="17.8152991">
        <ele>28.9769</ele>
        <time>2012-04-09T13:17:49Z</time>
      </trkpt>
      <trkpt lat="59.9513752" lon="17.8145471">
        <ele>28.9769</ele>
        <time>2012-04-09T13:17:57Z</time>
      </trkpt>
      <trkpt lat="59.9513852" lon="17.8136638">
        <ele>29.4575</ele>
        <time>2012-04-09T13:18:06Z</time>
      </trkpt>
      <trkpt lat="59.9513891" lon="17.8126829">
        <ele>29.9381</ele>
        <time>2012-04-09T13:18:16Z</time>
      </trkpt>
      <trkpt lat="59.9514132" lon="17.8118519">
        <ele>30.4188</ele>
        <time>2012-04-09T13:18:25Z</time>
      </trkpt>
      <trkpt lat="59.95152" lon="17.8109975">
        <ele>30.4188</ele>
        <time>2012-04-09T13:18:34Z</time>
      </trkpt>
      <trkpt lat="59.9516935" lon="17.8101476">
        <ele>30.8995</ele>
        <time>2012-04-09T13:18:43Z</time>
      </trkpt>
      <trkpt lat="59.9518979" lon="17.8093495">
        <ele>31.3801</ele>
        <time>2012-04-09T13:18:52Z</time>
      </trkpt>
      <trkpt lat="59.9520435" lon="17.8088221">
        <ele>32.3416</ele>
        <time>2012-04-09T13:18:59Z</time>
      </trkpt>
      <trkpt lat="59.9522052" lon="17.8082023">
        <ele>32.3416</ele>
        <time>2012-04-09T13:19:06Z</time>
      </trkpt>
      <trkpt lat="59.9523275" lon="17.807743">
        <ele>32.8223</ele>
        <time>2012-04-09T13:19:12Z</time>
      </trkpt>
      <trkpt lat="59.952501" lon="17.8070578">
        <ele>33.7834</ele>
        <time>2012-04-09T13:19:20Z</time>
      </trkpt>
      <trkpt lat="59.9526047" lon="17.8066141">
        <ele>34.7449</ele>
        <time>2012-04-09T13:19:26Z</time>
      </trkpt>
      <trkpt lat="59.9527449" lon="17.8058678">
        <ele>35.7061</ele>
        <time>2012-04-09T13:19:36Z</time>
      </trkpt>
      <trkpt lat="59.9528444" lon="17.8050059">
        <ele>35.2255</ele>
        <time>2012-04-09T13:19:46Z</time>
      </trkpt>
      <trkpt lat="59.952866" lon="17.8048383">
        <ele>35.2255</ele>
        <time>2012-04-09T13:19:48Z</time>
      </trkpt>
      <trkpt lat="59.9530112" lon="17.8042604">
        <ele>34.2642</ele>
        <time>2012-04-09T13:19:56Z</time>
      </trkpt>
      <trkpt lat="59.953036" lon="17.8042035">
        <ele>34.7449</ele>
        <time>2012-04-09T13:19:57Z</time>
      </trkpt>
      <trkpt lat="59.9533535" lon="17.8035373">
        <ele>35.7061</ele>
        <time>2012-04-09T13:20:09Z</time>
      </trkpt>
      <trkpt lat="59.9535235" lon="17.8029799">
        <ele>35.7061</ele>
        <time>2012-04-09T13:20:16Z</time>
      </trkpt>
      <trkpt lat="59.9536764" lon="17.8022385">
        <ele>34.2642</ele>
        <time>2012-04-09T13:20:23Z</time>
      </trkpt>
      <trkpt lat="59.9537012" lon="17.80212">
        <ele>33.3029</ele>
        <time>2012-04-09T13:20:24Z</time>
      </trkpt>
      <trkpt lat="59.9539709" lon="17.8013228">
        <ele>30.8995</ele>
        <time>2012-04-09T13:20:31Z</time>
      </trkpt>
      <trkpt lat="59.9544093" lon="17.8002075">
        <ele>28.0155</ele>
        <time>2012-04-09T13:20:41Z</time>
      </trkpt>
      <trkpt lat="59.9547713" lon="17.7993963">
        <ele>29.4575</ele>
        <time>2012-04-09T13:20:49Z</time>
      </trkpt>
      <trkpt lat="59.9551076" lon="17.7987478">
        <ele>30.8995</ele>
        <time>2012-04-09T13:20:57Z</time>
      </trkpt>
      <trkpt lat="59.9553472" lon="17.7981246">
        <ele>30.4188</ele>
        <time>2012-04-09T13:21:03Z</time>
      </trkpt>
      <trkpt lat="59.9556775" lon="17.7969793">
        <ele>29.9381</ele>
        <time>2012-04-09T13:21:12Z</time>
      </trkpt>
      <trkpt lat="59.9558321" lon="17.7962214">
        <ele>29.9381</ele>
        <time>2012-04-09T13:21:18Z</time>
      </trkpt>
      <trkpt lat="59.9559616" lon="17.7954888">
        <ele>29.9381</ele>
        <time>2012-04-09T13:21:25Z</time>
      </trkpt>
      <trkpt lat="59.9561338" lon="17.7947626">
        <ele>30.4188</ele>
        <time>2012-04-09T13:21:32Z</time>
      </trkpt>
      <trkpt lat="59.9563686" lon="17.7937003">
        <ele>31.8607</ele>
        <time>2012-04-09T13:21:42Z</time>
      </trkpt>
      <trkpt lat="59.9565245" lon="17.7929207">
        <ele>33.3029</ele>
        <time>2012-04-09T13:21:50Z</time>
      </trkpt>
      <trkpt lat="59.9567062" lon="17.7918718">
        <ele>33.7834</ele>
        <time>2012-04-09T13:22:00Z</time>
      </trkpt>
      <trkpt lat="59.9567668" lon="17.7914291">
        <ele>33.7834</ele>
        <time>2012-04-09T13:22:04Z</time>
      </trkpt>
      <trkpt lat="59.956743" lon="17.7908937">
        <ele>33.7834</ele>
        <time>2012-04-09T13:22:09Z</time>
      </trkpt>
      <trkpt lat="59.9567239" lon="17.7907878">
        <ele>33.7834</ele>
        <time>2012-04-09T13:22:10Z</time>
      </trkpt>
      <trkpt lat="59.9566088" lon="17.7901913">
        <ele>31.3801</ele>
        <time>2012-04-09T13:22:15Z</time>
      </trkpt>
      <trkpt lat="59.95664" lon="17.7896909">
        <ele>30.4188</ele>
        <time>2012-04-09T13:22:19Z</time>
      </trkpt>
      <trkpt lat="59.9567735" lon="17.7894287">
        <ele>29.4575</ele>
        <time>2012-04-09T13:22:22Z</time>
      </trkpt>
      <trkpt lat="59.9570241" lon="17.7891119">
        <ele>29.4575</ele>
        <time>2012-04-09T13:22:27Z</time>
      </trkpt>
      <trkpt lat="59.95729" lon="17.7885558">
        <ele>30.4188</ele>
        <time>2012-04-09T13:22:34Z</time>
      </trkpt>
      <trkpt lat="59.9575107" lon="17.7877849">
        <ele>31.3801</ele>
        <time>2012-04-09T13:22:42Z</time>
      </trkpt>
      <trkpt lat="59.9576733" lon="17.7870743">
        <ele>31.8607</ele>
        <time>2012-04-09T13:22:49Z</time>
      </trkpt>
      <trkpt lat="59.9577177" lon="17.786874">
        <ele>31.8607</ele>
        <time>2012-04-09T13:22:51Z</time>
      </trkpt>
      <trkpt lat="59.9578702" lon="17.7865078">
        <ele>31.8607</ele>
        <time>2012-04-09T13:22:55Z</time>
      </trkpt>
      <trkpt lat="59.9582716" lon="17.7860126">
        <ele>32.3416</ele>
        <time>2012-04-09T13:23:03Z</time>
      </trkpt>
      <trkpt lat="59.9585546" lon="17.7856867">
        <ele>32.8223</ele>
        <time>2012-04-09T13:23:10Z</time>
      </trkpt>
      <trkpt lat="59.9588715" lon="17.7854137">
        <ele>33.7834</ele>
        <time>2012-04-09T13:23:18Z</time>
      </trkpt>
      <trkpt lat="59.9591912" lon="17.7851593">
        <ele>33.7834</ele>
        <time>2012-04-09T13:23:25Z</time>
      </trkpt>
      <trkpt lat="59.9592306" lon="17.7851251">
        <ele>33.7834</ele>
        <time>2012-04-09T13:23:26Z</time>
      </trkpt>
      <trkpt lat="59.9593527" lon="17.784975">
        <ele>34.2642</ele>
        <time>2012-04-09T13:23:30Z</time>
      </trkpt>
      <trkpt lat="59.959452" lon="17.7848375">
        <ele>33.7834</ele>
        <time>2012-04-09T13:23:34Z</time>
      </trkpt>
      <trkpt lat="59.9597262" lon="17.7843904">
        <ele>33.3029</ele>
        <time>2012-04-09T13:23:43Z</time>
      </trkpt>
      <trkpt lat="59.9599762" lon="17.7838745">
        <ele>32.8223</ele>
        <time>2012-04-09T13:23:50Z</time>
      </trkpt>
      <trkpt lat="59.9601506" lon="17.7833765">
        <ele>32.8223</ele>
        <time>2012-04-09T13:23:56Z</time>
      </trkpt>
      <trkpt lat="59.960369" lon="17.7827294">
        <ele>33.7834</ele>
        <time>2012-04-09T13:24:05Z</time>
      </trkpt>
      <trkpt lat="59.9605413" lon="17.7821824">
        <ele>33.3029</ele>
        <time>2012-04-09T13:24:12Z</time>
      </trkpt>
      <trkpt lat="59.960802" lon="17.7816422">
        <ele>32.3416</ele>
        <time>2012-04-09T13:24:20Z</time>
      </trkpt>
      <trkpt lat="59.9610405" lon="17.7812245">
        <ele>32.3416</ele>
        <time>2012-04-09T13:24:28Z</time>
      </trkpt>
      <trkpt lat="59.9612476" lon="17.7808463">
        <ele>32.8223</ele>
        <time>2012-04-09T13:24:37Z</time>
      </trkpt>
      <trkpt lat="59.9613869" lon="17.7805993">
        <ele>32.3416</ele>
        <time>2012-04-09T13:24:44Z</time>
      </trkpt>
      <trkpt lat="59.9615237" lon="17.7803366">
        <ele>32.3416</ele>
        <time>2012-04-09T13:24:52Z</time>
      </trkpt>
      <trkpt lat="59.9616967" lon="17.7799632">
        <ele>32.3416</ele>
        <time>2012-04-09T13:24:59Z</time>
      </trkpt>
      <trkpt lat="59.9619293" lon="17.7794272">
        <ele>32.3416</ele>
        <time>2012-04-09T13:25:07Z</time>
      </trkpt>
      <trkpt lat="59.9622437" lon="17.7787051">
        <ele>31.8607</ele>
        <time>2012-04-09T13:25:18Z</time>
      </trkpt>
      <trkpt lat="59.9624328" lon="17.77826">
        <ele>31.8607</ele>
        <time>2012-04-09T13:25:25Z</time>
      </trkpt>
      <trkpt lat="59.96246" lon="17.7781898">
        <ele>31.8607</ele>
        <time>2012-04-09T13:25:26Z</time>
      </trkpt>
      <trkpt lat="59.96268" lon="17.7777403">
        <ele>32.3416</ele>
        <time>2012-04-09T13:25:32Z</time>
      </trkpt>
      <trkpt lat="59.9630074" lon="17.7770369">
        <ele>32.8223</ele>
        <time>2012-04-09T13:25:40Z</time>
      </trkpt>
      <trkpt lat="59.9632057" lon="17.7763994">
        <ele>33.7834</ele>
        <time>2012-04-09T13:25:46Z</time>
      </trkpt>
      <trkpt lat="59.9634036" lon="17.7757687">
        <ele>33.7834</ele>
        <time>2012-04-09T13:25:53Z</time>
      </trkpt>
      <trkpt lat="59.9635691" lon="17.7752436">
        <ele>32.8223</ele>
        <time>2012-04-09T13:25:59Z</time>
      </trkpt>
      <trkpt lat="59.9637183" lon="17.7744651">
        <ele>32.3416</ele>
        <time>2012-04-09T13:26:07Z</time>
      </trkpt>
      <trkpt lat="59.9638445" lon="17.7736959">
        <ele>31.3801</ele>
        <time>2012-04-09T13:26:15Z</time>
      </trkpt>
      <trkpt lat="59.9639024" lon="17.7731876">
        <ele>30.8995</ele>
        <time>2012-04-09T13:26:21Z</time>
      </trkpt>
      <trkpt lat="59.9639096" lon="17.7728141">
        <ele>30.4188</ele>
        <time>2012-04-09T13:26:25Z</time>
      </trkpt>
      <trkpt lat="59.9638252" lon="17.7721903">
        <ele>30.4188</ele>
        <time>2012-04-09T13:26:31Z</time>
      </trkpt>
      <trkpt lat="59.9637557" lon="17.771925">
        <ele>30.4188</ele>
        <time>2012-04-09T13:26:35Z</time>
      </trkpt>
      <trkpt lat="59.9636801" lon="17.7715583">
        <ele>30.4188</ele>
        <time>2012-04-09T13:26:41Z</time>
      </trkpt>
      <trkpt lat="59.9635263" lon="17.7708208">
        <ele>31.3801</ele>
        <time>2012-04-09T13:26:52Z</time>
      </trkpt>
      <trkpt lat="59.9634741" lon="17.7702964">
        <ele>32.8223</ele>
        <time>2012-04-09T13:27:00Z</time>
      </trkpt>
      <trkpt lat="59.96348" lon="17.7697806">
        <ele>32.8223</ele>
        <time>2012-04-09T13:27:07Z</time>
      </trkpt>
      <trkpt lat="59.963557" lon="17.7693253">
        <ele>32.3416</ele>
        <time>2012-04-09T13:27:12Z</time>
      </trkpt>
      <trkpt lat="59.9637672" lon="17.7686312">
        <ele>31.8607</ele>
        <time>2012-04-09T13:27:20Z</time>
      </trkpt>
      <trkpt lat="59.9639046" lon="17.7680874">
        <ele>32.8223</ele>
        <time>2012-04-09T13:27:27Z</time>
      </trkpt>
      <trkpt lat="59.9640205" lon="17.7675119">
        <ele>33.3029</ele>
        <time>2012-04-09T13:27:35Z</time>
      </trkpt>
      <trkpt lat="59.9640828" lon="17.7668252">
        <ele>34.2642</ele>
        <time>2012-04-09T13:27:43Z</time>
      </trkpt>
      <trkpt lat="59.9640703" lon="17.7661604">
        <ele>33.7834</ele>
        <time>2012-04-09T13:27:50Z</time>
      </trkpt>
      <trkpt lat="59.9640972" lon="17.7654708">
        <ele>31.3801</ele>
        <time>2012-04-09T13:27:56Z</time>
      </trkpt>
      <trkpt lat="59.9641245" lon="17.7652031">
        <ele>30.4188</ele>
        <time>2012-04-09T13:27:58Z</time>
      </trkpt>
      <trkpt lat="59.964306" lon="17.7644033">
        <ele>28.0155</ele>
        <time>2012-04-09T13:28:04Z</time>
      </trkpt>
      <trkpt lat="59.9645516" lon="17.7635013">
        <ele>24.651</ele>
        <time>2012-04-09T13:28:12Z</time>
      </trkpt>
      <trkpt lat="59.9647348" lon="17.7628487">
        <ele>21.767</ele>
        <time>2012-04-09T13:28:18Z</time>
      </trkpt>
      <trkpt lat="59.9649932" lon="17.762114">
        <ele>20.8057</ele>
        <time>2012-04-09T13:28:26Z</time>
      </trkpt>
      <trkpt lat="59.965199" lon="17.7615598">
        <ele>22.2476</ele>
        <time>2012-04-09T13:28:33Z</time>
      </trkpt>
      <trkpt lat="59.9654511" lon="17.7609461">
        <ele>21.2864</ele>
        <time>2012-04-09T13:28:40Z</time>
      </trkpt>
      <trkpt lat="59.965643" lon="17.7606094">
        <ele>22.2476</ele>
        <time>2012-04-09T13:28:45Z</time>
      </trkpt>
      <trkpt lat="59.9657152" lon="17.7604957">
        <ele>22.2476</ele>
        <time>2012-04-09T13:28:47Z</time>
      </trkpt>
      <trkpt lat="59.9660194" lon="17.7599462">
        <ele>21.2864</ele>
        <time>2012-04-09T13:28:55Z</time>
      </trkpt>
      <trkpt lat="59.9663693" lon="17.7593443">
        <ele>21.767</ele>
        <time>2012-04-09T13:29:03Z</time>
      </trkpt>
      <trkpt lat="59.9667654" lon="17.7588553">
        <ele>21.767</ele>
        <time>2012-04-09T13:29:11Z</time>
      </trkpt>
      <trkpt lat="59.9672942" lon="17.7583977">
        <ele>22.7283</ele>
        <time>2012-04-09T13:29:21Z</time>
      </trkpt>
      <trkpt lat="59.9676575" lon="17.7580382">
        <ele>23.6896</ele>
        <time>2012-04-09T13:29:28Z</time>
      </trkpt>
      <trkpt lat="59.9680066" lon="17.7576338">
        <ele>26.5736</ele>
        <time>2012-04-09T13:29:36Z</time>
      </trkpt>
      <trkpt lat="59.9682329" lon="17.75734">
        <ele>28.4962</ele>
        <time>2012-04-09T13:29:43Z</time>
      </trkpt>
      <trkpt lat="59.9684847" lon="17.7569703">
        <ele>28.9769</ele>
        <time>2012-04-09T13:29:51Z</time>
      </trkpt>
      <trkpt lat="59.968834" lon="17.7563972">
        <ele>28.9769</ele>
        <time>2012-04-09T13:30:01Z</time>
      </trkpt>
      <trkpt lat="59.9691074" lon="17.7558254">
        <ele>28.4962</ele>
        <time>2012-04-09T13:30:08Z</time>
      </trkpt>
      <trkpt lat="59.9694066" lon="17.7551661">
        <ele>28.9769</ele>
        <time>2012-04-09T13:30:15Z</time>
      </trkpt>
      <trkpt lat="59.9697932" lon="17.7543796">
        <ele>30.4188</ele>
        <time>2012-04-09T13:30:24Z</time>
      </trkpt>
      <trkpt lat="59.9701547" lon="17.753554">
        <ele>30.8995</ele>
        <time>2012-04-09T13:30:32Z</time>
      </trkpt>
      <trkpt lat="59.9704217" lon="17.7527935">
        <ele>31.3801</ele>
        <time>2012-04-09T13:30:39Z</time>
      </trkpt>
      <trkpt lat="59.9704568" lon="17.7526915">
        <ele>31.3801</ele>
        <time>2012-04-09T13:30:40Z</time>
      </trkpt>
      <trkpt lat="59.9706194" lon="17.752361">
        <ele>30.4188</ele>
        <time>2012-04-09T13:30:44Z</time>
      </trkpt>
      <trkpt lat="59.9708829" lon="17.7518943">
        <ele>29.9381</ele>
        <time>2012-04-09T13:30:50Z</time>
      </trkpt>
      <trkpt lat="59.9710759" lon="17.7516394">
        <ele>29.4575</ele>
        <time>2012-04-09T13:30:54Z</time>
      </trkpt>
      <trkpt lat="59.9711659" lon="17.7515304">
        <ele>28.9769</ele>
        <time>2012-04-09T13:30:56Z</time>
      </trkpt>
      <trkpt lat="59.9714891" lon="17.7511504">
        <ele>31.3801</ele>
        <time>2012-04-09T13:31:03Z</time>
      </trkpt>
      <trkpt lat="59.9718014" lon="17.7507262">
        <ele>32.8223</ele>
        <time>2012-04-09T13:31:10Z</time>
      </trkpt>
      <trkpt lat="59.9720583" lon="17.7501863">
        <ele>34.2642</ele>
        <time>2012-04-09T13:31:17Z</time>
      </trkpt>
      <trkpt lat="59.9721925" lon="17.7498604">
        <ele>35.7061</ele>
        <time>2012-04-09T13:31:21Z</time>
      </trkpt>
      <trkpt lat="59.9724269" lon="17.7492747">
        <ele>35.2255</ele>
        <time>2012-04-09T13:31:28Z</time>
      </trkpt>
      <trkpt lat="59.9726438" lon="17.7487891">
        <ele>35.2255</ele>
        <time>2012-04-09T13:31:35Z</time>
      </trkpt>
      <trkpt lat="59.972811" lon="17.7483875">
        <ele>33.3029</ele>
        <time>2012-04-09T13:31:40Z</time>
      </trkpt>
      <trkpt lat="59.9728904" lon="17.7482173">
        <ele>32.8223</ele>
        <time>2012-04-09T13:31:42Z</time>
      </trkpt>
      <trkpt lat="59.9732146" lon="17.7477787">
        <ele>31.3801</ele>
        <time>2012-04-09T13:31:49Z</time>
      </trkpt>
      <trkpt lat="59.9735653" lon="17.7474089">
        <ele>32.8223</ele>
        <time>2012-04-09T13:31:57Z</time>
      </trkpt>
      <trkpt lat="59.9738503" lon="17.747097">
        <ele>34.7449</ele>
        <time>2012-04-09T13:32:03Z</time>
      </trkpt>
      <trkpt lat="59.9741441" lon="17.7467083">
        <ele>33.7834</ele>
        <time>2012-04-09T13:32:09Z</time>
      </trkpt>
      <trkpt lat="59.9744225" lon="17.7463525">
        <ele>33.7834</ele>
        <time>2012-04-09T13:32:16Z</time>
      </trkpt>
      <trkpt lat="59.9746778" lon="17.745946">
        <ele>35.2255</ele>
        <time>2012-04-09T13:32:24Z</time>
      </trkpt>
      <trkpt lat="59.9748056" lon="17.7456918">
        <ele>35.7061</ele>
        <time>2012-04-09T13:32:28Z</time>
      </trkpt>
      <trkpt lat="59.9750309" lon="17.7450562">
        <ele>35.7061</ele>
        <time>2012-04-09T13:32:36Z</time>
      </trkpt>
      <trkpt lat="59.9752497" lon="17.744277">
        <ele>35.7061</ele>
        <time>2012-04-09T13:32:45Z</time>
      </trkpt>
      <trkpt lat="59.9754263" lon="17.7433438">
        <ele>35.2255</ele>
        <time>2012-04-09T13:32:55Z</time>
      </trkpt>
      <trkpt lat="59.9756456" lon="17.7425632">
        <ele>36.6675</ele>
        <time>2012-04-09T13:33:03Z</time>
      </trkpt>
      <trkpt lat="59.9758304" lon="17.7417699">
        <ele>35.7061</ele>
        <time>2012-04-09T13:33:11Z</time>
      </trkpt>
      <trkpt lat="59.9760352" lon="17.7409165">
        <ele>34.2642</ele>
        <time>2012-04-09T13:33:20Z</time>
      </trkpt>
      <trkpt lat="59.9762443" lon="17.7402674">
        <ele>32.8223</ele>
        <time>2012-04-09T13:33:28Z</time>
      </trkpt>
      <trkpt lat="59.9764621" lon="17.7396807">
        <ele>31.3801</ele>
        <time>2012-04-09T13:33:36Z</time>
      </trkpt>
      <trkpt lat="59.9764984" lon="17.739624">
        <ele>31.3801</ele>
        <time>2012-04-09T13:33:37Z</time>
      </trkpt>
      <trkpt lat="59.9766797" lon="17.7394464">
        <ele>32.3416</ele>
        <time>2012-04-09T13:33:41Z</time>
      </trkpt>
      <trkpt lat="59.9769641" lon="17.7393445">
        <ele>33.3029</ele>
        <time>2012-04-09T13:33:47Z</time>
      </trkpt>
      <trkpt lat="59.9773505" lon="17.73913">
        <ele>34.7449</ele>
        <time>2012-04-09T13:33:55Z</time>
      </trkpt>
      <trkpt lat="59.9776807" lon="17.7390535">
        <ele>37.1481</ele>
        <time>2012-04-09T13:34:02Z</time>
      </trkpt>
      <trkpt lat="59.9780063" lon="17.7391896">
        <ele>39.0707</ele>
        <time>2012-04-09T13:34:10Z</time>
      </trkpt>
      <trkpt lat="59.9783347" lon="17.7393099">
        <ele>41.9547</ele>
        <time>2012-04-09T13:34:19Z</time>
      </trkpt>
      <trkpt lat="59.9786242" lon="17.7393482">
        <ele>42.916</ele>
        <time>2012-04-09T13:34:26Z</time>
      </trkpt>
      <trkpt lat="59.9787981" lon="17.7393522">
        <ele>43.3966</ele>
        <time>2012-04-09T13:34:30Z</time>
      </trkpt>
      <trkpt lat="59.9788765" lon="17.7393761">
        <ele>42.916</ele>
        <time>2012-04-09T13:34:32Z</time>
      </trkpt>
      <trkpt lat="59.9790017" lon="17.7396449">
        <ele>41.474</ele>
        <time>2012-04-09T13:34:37Z</time>
      </trkpt>
      <trkpt lat="59.9789934" lon="17.7397635">
        <ele>41.474</ele>
        <time>2012-04-09T13:34:40Z</time>
      </trkpt>
    </trkseg>
  </trk>
</gpx>